AA2813 / N976NN 7700 Squawk Report (17th of November, 2021)

Aircraft B738 Reg No. N976NN Age 6 years old
Model 737 Jet engines 2 First flight 24-07-15
Registered 12-08-15 Rollout N/A Delivered 12-08-15
Construction No. 33243 Line No. 5521 Series 823
ADSHEX AD9B28 Airline name American Airlines Owner N/A
Airfield based Dallas-Fort Worth~TX~N First tracked N/A

Flight history for N976NN

Route Flight No Date Playback
Miami Intl (MIA) - V C Bird Intl (ANU) - Miami Intl (MIA) AA2405 2022-01-20 21:59:00
Philadelphia Intl (PHL) - Miami Intl (MIA) AA2534 2022-01-20 14:45:00
Dallas Fort Worth (DFW) - Philadelphia Intl (PHL) AA2334 2022-01-20 01:35:00
Dallas Fort Worth (DFW) - La Guardia (LGA) - Dallas Fort Worth (DFW) AA1263 2022-01-19 21:23:00
Miami Intl (MIA) - Dallas Fort Worth (DFW) AA1950 2022-01-19 05:52:00
Louis Armstrong New Orleans Intl (MSY) - Miami Intl (MIA) AA795 2022-01-19 01:17:00
Chicago Ohare Intl (ORD) - Miami Intl (MIA) AA2180 2022-01-18 19:17:00
Newark Liberty Intl (EWR) - Chicago Ohare Intl (ORD) AA2124 2022-01-18 15:58:00
Phoenix Sky Harbor Intl (PHX) - Newark Liberty Intl (EWR) AA1967 2022-01-18 12:26:00
John F Kennedy Intl (JFK) - Phoenix Sky Harbor Intl (PHX) AA2829 2022-01-17 23:10:00
Austin Bergstrom Intl (AUS) - John F Kennedy Intl (JFK) AA2292 2022-01-17 17:47:00
Dallas Fort Worth (DFW) - Austin Bergstrom Intl (AUS) AA1205 2022-01-17 08:39:00
Dallas Fort Worth (DFW) - John Wayne Arpt Orange Co (SNA) - Dallas Fort Worth (DFW) AA2659 2022-01-17 07:42:00
John Wayne Arpt Orange Co (SNA) - Dallas Fort Worth (DFW) AA2626 2022-01-16 19:37:00
Dallas Fort Worth (DFW) - John Wayne Arpt Orange Co (SNA) AA2724 2022-01-16 02:33:00
Yampa Valley (HDN) - Dallas Fort Worth (DFW) AA1923 2022-01-15 22:03:00
La Guardia (LGA) - Dallas Fort Worth (DFW) AA1597 2022-01-15 15:06:00
Dallas Fort Worth (DFW) - La Guardia (LGA) AA1726 2022-01-15 04:27:00
Dallas Fort Worth (DFW) - La Guardia (LGA) - Dallas Fort Worth (DFW) AA1056 2022-01-14 23:56:00
Louis Armstrong New Orleans Intl (MSY) - Dallas Fort Worth (DFW) AA468 2022-01-14 13:32:00
Time Lat Lon Altitude Heading Speed Vertical Rate
2021-11-17 15:20:51 GMT 40.492920 -80.243118 0 141 2 32
2021-11-17 15:20:50 GMT 40.492908 -80.243118 0 141 2 32
2021-11-17 15:20:49 GMT 40.492901 -80.243118 0 141 2 32
2021-11-17 15:20:47 GMT 40.492882 -80.243134 0 141 2 32
2021-11-17 15:20:46 GMT 40.492870 -80.243134 0 141 2 32
2021-11-17 15:20:45 GMT 40.492859 -80.243134 0 141 2 32
2021-11-17 15:20:43 GMT 40.492828 -80.243141 0 141 2 32
2021-11-17 15:20:42 GMT 40.492821 -80.243156 0 141 2 32
2021-11-17 15:20:41 GMT 40.492790 -80.243156 0 141 2 32
2021-11-17 15:20:40 GMT 40.492859 -80.243141 0 141 7 32
2021-11-17 15:20:38 GMT 40.492790 -80.243141 0 141 1 32
2021-11-17 15:20:37 GMT 40.492722 -80.243141 0 141 9 32
2021-11-17 15:20:35 GMT 40.492882 -80.243118 0 45 2 32
2021-11-17 15:20:34 GMT 40.492931 -80.243141 0 45 5 32
2021-11-17 15:20:33 GMT 40.492920 -80.243141 0 55 7 32
2021-11-17 15:20:31 GMT 40.492809 -80.243141 0 55 1 32
2021-11-17 15:20:30 GMT 40.492828 -80.243149 0 55 0 32
2021-11-17 15:20:28 GMT 40.492821 -80.243149 0 55 1 32
2021-11-17 15:20:26 GMT 40.492828 -80.243149 0 55 1 32
2021-11-17 15:20:25 GMT 40.492828 -80.243141 0 55 1 32
2021-11-17 15:20:24 GMT 40.492851 -80.243141 0 55 1 32
2021-11-17 15:20:21 GMT 40.492882 -80.243149 0 55 0 32
2021-11-17 15:20:19 GMT 40.492859 -80.243149 0 55 1 32
2021-11-17 15:20:17 GMT 40.492851 -80.243141 0 55 1 32
2021-11-17 15:20:15 GMT 40.492901 -80.243141 0 55 3 32
2021-11-17 15:20:14 GMT 40.492840 -80.243149 0 55 1 32
2021-11-17 15:20:12 GMT 40.492828 -80.243156 0 55 0 32
2021-11-17 15:20:11 GMT 40.492809 -80.243141 0 55 2 32
2021-11-17 15:20:09 GMT 40.492828 -80.243172 0 55 1 32
2021-11-17 15:20:08 GMT 40.492828 -80.243156 0 55 1 32
2021-11-17 15:20:06 GMT 40.492809 -80.243156 0 55 2 32
2021-11-17 15:20:05 GMT 40.492851 -80.243156 0 55 1 32
2021-11-17 15:20:03 GMT 40.492760 -80.243172 0 55 11 32
2021-11-17 15:20:02 GMT 40.492901 -80.243179 0 55 2 32
2021-11-17 15:20:00 GMT 40.492901 -80.243134 0 55 3 32
2021-11-17 15:19:59 GMT 40.492870 -80.243134 0 55 1 32
2021-11-17 15:19:57 GMT 40.492828 -80.243156 0 55 2 32
2021-11-17 15:19:56 GMT 40.492870 -80.243149 0 55 1 32
2021-11-17 15:19:55 GMT 40.492882 -80.243149 0 55 2 32
2021-11-17 15:19:53 GMT 40.492840 -80.243156 0 55 0 32
2021-11-17 15:19:52 GMT 40.492859 -80.243156 0 55 2 32
2021-11-17 15:19:51 GMT 40.492828 -80.243134 0 55 1 32
2021-11-17 15:19:49 GMT 40.492809 -80.243134 0 55 1 32
2021-11-17 15:19:47 GMT 40.492821 -80.243172 0 55 1 32
2021-11-17 15:19:46 GMT 40.492828 -80.243149 0 55 0 32
2021-11-17 15:19:44 GMT 40.492859 -80.243149 0 55 0 32
2021-11-17 15:19:43 GMT 40.492870 -80.243149 0 55 0 32
2021-11-17 15:19:42 GMT 40.492882 -80.243149 0 55 1 32
2021-11-17 15:19:40 GMT 40.492870 -80.243118 0 55 1 32
2021-11-17 15:19:39 GMT 40.492870 -80.243134 0 55 1 32
2021-11-17 15:19:38 GMT 40.492882 -80.243141 0 55 2 32
2021-11-17 15:19:36 GMT 40.492859 -80.243141 0 55 1 32
2021-11-17 15:19:34 GMT 40.492840 -80.243149 0 55 1 32
2021-11-17 15:19:33 GMT 40.492821 -80.243172 0 55 2 32
2021-11-17 15:19:32 GMT 40.492821 -80.243141 0 55 1 32
2021-11-17 15:19:31 GMT 40.492828 -80.243111 0 55 0 32
2021-11-17 15:19:26 GMT 40.492828 -80.243111 0 55 0 32
2021-11-17 15:19:23 GMT 40.492828 -80.243111 0 55 0 32
2021-11-17 15:19:20 GMT 40.492840 -80.243103 0 55 1 32
2021-11-17 15:19:19 GMT 40.492828 -80.243111 0 55 1 32
2021-11-17 15:19:17 GMT 40.492821 -80.243134 0 55 0 32
2021-11-17 15:19:16 GMT 40.492828 -80.243141 0 55 1 32
2021-11-17 15:19:14 GMT 40.492821 -80.243134 0 55 0 32
2021-11-17 15:19:13 GMT 40.492828 -80.243118 0 55 0 32
2021-11-17 15:19:11 GMT 40.492840 -80.243111 0 55 2 32
2021-11-17 15:19:10 GMT 40.492821 -80.243134 0 55 1 32
2021-11-17 15:19:08 GMT 40.492802 -80.243149 0 55 2 32
2021-11-17 15:19:07 GMT 40.492802 -80.243156 0 53 3 32
2021-11-17 15:19:05 GMT 40.492821 -80.243141 0 53 2 32
2021-11-17 15:19:04 GMT 40.492851 -80.243149 0 53 1 32
2021-11-17 15:19:02 GMT 40.492821 -80.243134 0 53 5 32
2021-11-17 15:19:01 GMT 40.492851 -80.243187 0 53 1 32
2021-11-17 15:19:00 GMT 40.492859 -80.243156 0 53 1 32
2021-11-17 15:18:58 GMT 40.492828 -80.243141 0 53 2 32
2021-11-17 15:18:57 GMT 40.492840 -80.243134 0 53 2 32
2021-11-17 15:18:55 GMT 40.492882 -80.243141 0 40 6 32
2021-11-17 15:18:54 GMT 40.492882 -80.243172 0 40 7 32
2021-11-17 15:18:53 GMT 40.492882 -80.243187 0 0 1 32
2021-11-17 15:18:51 GMT 40.492908 -80.243202 0 0 5 32
2021-11-17 15:18:50 GMT 40.492809 -80.243179 0 15 1 32
2021-11-17 15:18:48 GMT 40.492779 -80.243202 0 15 2 32
2021-11-17 15:18:47 GMT 40.492802 -80.243187 0 15 1 32
2021-11-17 15:18:45 GMT 40.492809 -80.243172 0 15 1 32
2021-11-17 15:18:44 GMT 40.492809 -80.243179 0 15 0 32
2021-11-17 15:18:42 GMT 40.492821 -80.243187 0 15 2 32
2021-11-17 15:18:41 GMT 40.492802 -80.243156 0 15 2 32
2021-11-17 15:18:39 GMT 40.492748 -80.243202 0 10 1 32
2021-11-17 15:18:38 GMT 40.492691 -80.243233 0 10 10 32
2021-11-17 15:18:36 GMT 40.492828 -80.243172 0 14 8 32
2021-11-17 15:18:35 GMT 40.492790 -80.243172 0 23 8 32
2021-11-17 15:18:33 GMT 40.492680 -80.243179 0 25 6 32
2021-11-17 15:18:32 GMT 40.492722 -80.243217 0 25 9 32
2021-11-17 15:18:30 GMT 40.492668 -80.243263 0 24 10 32
2021-11-17 15:18:29 GMT 40.492592 -80.243317 0 22 11 32
2021-11-17 15:18:27 GMT 40.492550 -80.243340 0 23 11 32
2021-11-17 15:18:26 GMT 40.492458 -80.243378 0 24 12 32
2021-11-17 15:18:24 GMT 40.492420 -80.243408 0 23 12 32
2021-11-17 15:18:23 GMT 40.492378 -80.243431 0 25 12 32
2021-11-17 15:18:21 GMT 40.492271 -80.243477 0 27 12 32
2021-11-17 15:18:20 GMT 40.492241 -80.243523 0 29 14 32
2021-11-17 15:18:18 GMT 40.492130 -80.243622 0 9 14 32
2021-11-17 15:18:17 GMT 40.492069 -80.243637 0 9 14 32
2021-11-17 15:18:15 GMT 40.491940 -80.243668 0 4 13 32
2021-11-17 15:18:14 GMT 40.491901 -80.243721 0 349 16 32
2021-11-17 15:18:13 GMT 40.491730 -80.243690 0 332 15 32
2021-11-17 15:18:11 GMT 40.491650 -80.243690 0 313 15 32
2021-11-17 15:18:10 GMT 40.491539 -80.243568 0 290 16 32
2021-11-17 15:18:08 GMT 40.491520 -80.243492 0 283 17 32
2021-11-17 15:18:07 GMT 40.491451 -80.243317 0 270 20 32
2021-11-17 15:18:05 GMT 40.491459 -80.243202 0 271 20 32
2021-11-17 15:18:04 GMT 40.491459 -80.243088 0 272 20 32
2021-11-17 15:18:02 GMT 40.491459 -80.242851 0 273 21 32
2021-11-17 15:18:01 GMT 40.491451 -80.242729 0 273 21 32
2021-11-17 15:18:00 GMT 40.491440 -80.242592 0 272 20 32
2021-11-17 15:17:59 GMT 40.491428 -80.242348 0 271 20 32
2021-11-17 15:17:57 GMT 40.491428 -80.242218 0 271 20 32
2021-11-17 15:17:56 GMT 40.491421 -80.242104 0 271 20 32
2021-11-17 15:17:54 GMT 40.491421 -80.241852 0 270 20 32
2021-11-17 15:17:53 GMT 40.491421 -80.241730 0 271 20 32
2021-11-17 15:17:51 GMT 40.491409 -80.241470 0 270 19 32
2021-11-17 15:17:50 GMT 40.491421 -80.241348 0 271 19 32
2021-11-17 15:17:48 GMT 40.491409 -80.241096 0 274 17 32
2021-11-17 15:17:47 GMT 40.491409 -80.240982 0 275 16 32
2021-11-17 15:17:45 GMT 40.491390 -80.240768 0 274 14 32
2021-11-17 15:17:44 GMT 40.491379 -80.240692 0 272 14 32
2021-11-17 15:17:42 GMT 40.491379 -80.240501 0 283 12 32
2021-11-17 15:17:41 GMT 40.491390 -80.240334 0 303 11 32
2021-11-17 15:17:39 GMT 40.491371 -80.240273 0 306 11 32
2021-11-17 15:17:38 GMT 40.491348 -80.240196 0 315 10 32
2021-11-17 15:17:36 GMT 40.491291 -80.240089 0 334 9 32
2021-11-17 15:17:35 GMT 40.491249 -80.240059 0 339 9 32
2021-11-17 15:17:33 GMT 40.491192 -80.239967 0 12 8 32
2021-11-17 15:17:32 GMT 40.491161 -80.239960 0 16 9 32
2021-11-17 15:17:31 GMT 40.491119 -80.239967 0 17 9 32
2021-11-17 15:17:29 GMT 40.491032 -80.240013 0 18 8 32
2021-11-17 15:17:28 GMT 40.490978 -80.240021 0 20 8 32
2021-11-17 15:17:27 GMT 40.490952 -80.240044 0 21 8 32
2021-11-17 15:17:25 GMT 40.490879 -80.240059 0 26 8 32
2021-11-17 15:17:24 GMT 40.490829 -80.240089 0 23 7 32
2021-11-17 15:17:22 GMT 40.490799 -80.240150 0 357 11 32
2021-11-17 15:17:21 GMT 40.490761 -80.240158 0 348 12 32
2021-11-17 15:17:19 GMT 40.490662 -80.240189 0 327 13 32
2021-11-17 15:17:18 GMT 40.490608 -80.240143 0 332 13 32
2021-11-17 15:17:17 GMT 40.490509 -80.240059 0 345 15 32
2021-11-17 15:17:15 GMT 40.490479 -80.239998 0 359 19 32
2021-11-17 15:17:13 GMT 40.490311 -80.239998 0 1 21 32
2021-11-17 15:17:12 GMT 40.490219 -80.239998 0 1 21 32
2021-11-17 15:17:11 GMT 40.490040 -80.239998 0 1 22 32
2021-11-17 15:17:09 GMT 40.489941 -80.239998 0 2 23 32
2021-11-17 15:17:08 GMT 40.489841 -80.239998 0 2 23 32
2021-11-17 15:17:06 GMT 40.489639 -80.240013 0 2 23 32
2021-11-17 15:17:05 GMT 40.489540 -80.240013 0 3 23 32
2021-11-17 15:17:03 GMT 40.489319 -80.240028 0 2 23 32
2021-11-17 15:17:02 GMT 40.489208 -80.240028 0 3 23 32
2021-11-17 15:17:01 GMT 40.489101 -80.240051 0 2 23 32
2021-11-17 15:16:59 GMT 40.488880 -80.240059 0 0 23 32
2021-11-17 15:16:58 GMT 40.488781 -80.240082 0 357 23 32
2021-11-17 15:16:57 GMT 40.488571 -80.240089 0 350 24 32
2021-11-17 15:16:55 GMT 40.488441 -80.240097 0 339 22 32
2021-11-17 15:16:54 GMT 40.488350 -80.240059 0 341 25 32
2021-11-17 15:16:52 GMT 40.488110 -80.240013 0 315 22 32
2021-11-17 15:16:51 GMT 40.488029 -80.239922 0 314 23 32
2021-11-17 15:16:49 GMT 40.487869 -80.239731 0 309 23 32
2021-11-17 15:16:48 GMT 40.487808 -80.239616 0 308 23 32
2021-11-17 15:16:46 GMT 40.487671 -80.239433 0 302 27 32
2021-11-17 15:16:45 GMT 40.487610 -80.239304 0 302 27 32
2021-11-17 15:16:43 GMT 40.487480 -80.239029 0 302 28 32
2021-11-17 15:16:42 GMT 40.487411 -80.238876 0 303 28 32
2021-11-17 15:16:40 GMT 40.487282 -80.238602 0 303 29 32
2021-11-17 15:16:39 GMT 40.487202 -80.238449 0 302 28 32
2021-11-17 15:16:38 GMT 40.487061 -80.238167 0 302 29 32
2021-11-17 15:16:36 GMT 40.486980 -80.238007 0 297 27 32
2021-11-17 15:16:35 GMT 40.486839 -80.237740 0 289 25 32
2021-11-17 15:16:33 GMT 40.486790 -80.237587 0 288 25 32
2021-11-17 15:16:32 GMT 40.486752 -80.237442 0 288 25 32
2021-11-17 15:16:30 GMT 40.486679 -80.237160 0 290 26 32
2021-11-17 15:16:29 GMT 40.486610 -80.236862 0 290 26 32
2021-11-17 15:16:27 GMT 40.486530 -80.236710 0 283 25 32
2021-11-17 15:16:25 GMT 40.486462 -80.236412 0 281 24 32
2021-11-17 15:16:24 GMT 40.486431 -80.236267 0 278 24 32
2021-11-17 15:16:22 GMT 40.486389 -80.235970 0 277 24 32
2021-11-17 15:16:21 GMT 40.486370 -80.235832 0 275 23 32
2021-11-17 15:16:20 GMT 40.486351 -80.235672 0 275 22 32
2021-11-17 15:16:18 GMT 40.486328 -80.235390 0 274 21 32
2021-11-17 15:16:17 GMT 40.486320 -80.235252 0 274 21 32
2021-11-17 15:16:16 GMT 40.486301 -80.235001 0 272 21 32
2021-11-17 15:16:14 GMT 40.486301 -80.234863 0 272 20 32
2021-11-17 15:16:12 GMT 40.486290 -80.234596 0 274 18 32
2021-11-17 15:16:11 GMT 40.486279 -80.234482 0 272 17 32
2021-11-17 15:16:09 GMT 40.486271 -80.234253 0 273 16 32
2021-11-17 15:16:08 GMT 40.486259 -80.234154 0 272 15 32
2021-11-17 15:16:06 GMT 40.486252 -80.233963 0 269 15 32
2021-11-17 15:16:05 GMT 40.486240 -80.233856 0 267 15 32
2021-11-17 15:16:03 GMT 40.486252 -80.233673 0 269 14 32
2021-11-17 15:16:01 GMT 40.486259 -80.233498 0 271 14 32
2021-11-17 15:16:00 GMT 40.486259 -80.233391 0 279 10 32
2021-11-17 15:15:59 GMT 40.486252 -80.233253 0 278 8 32
2021-11-17 15:15:57 GMT 40.486240 -80.233177 0 277 7 32
2021-11-17 15:15:56 GMT 40.486221 -80.233139 0 266 7 32
2021-11-17 15:15:55 GMT 40.486210 -80.233093 0 265 6 32
2021-11-17 15:15:51 GMT 40.486229 -80.232979 0 280 0 32
2021-11-17 15:15:45 GMT 40.486221 -80.232971 0 280 0 32
2021-11-17 15:15:33 GMT 40.486221 -80.232971 0 280 0 32
2021-11-17 15:15:28 GMT 40.486229 -80.232971 0 280 0 32
2021-11-17 15:15:20 GMT 40.486229 -80.232948 0 280 0 32
2021-11-17 15:15:18 GMT 40.486229 -80.232948 0 280 0 32
2021-11-17 15:15:13 GMT 40.486240 -80.232964 0 280 0 32
2021-11-17 15:15:09 GMT 40.486229 -80.232964 0 280 0 32
2021-11-17 15:15:06 GMT 40.486240 -80.232948 0 280 1 32
2021-11-17 15:15:04 GMT 40.486240 -80.232964 0 280 1 32
2021-11-17 15:15:03 GMT 40.486240 -80.232971 0 280 0 32
2021-11-17 15:15:00 GMT 40.486240 -80.232971 0 280 1 32
2021-11-17 15:14:56 GMT 40.486229 -80.232986 0 280 1 32
2021-11-17 15:14:55 GMT 40.486221 -80.232979 0 280 1 32
2021-11-17 15:14:51 GMT 40.486229 -80.232964 0 280 0 32
2021-11-17 15:14:47 GMT 40.486229 -80.232948 0 280 0 32
2021-11-17 15:14:43 GMT 40.486221 -80.232964 0 280 0 32
2021-11-17 15:14:39 GMT 40.486221 -80.232964 0 280 0 32
2021-11-17 15:14:34 GMT 40.486229 -80.232971 0 280 0 32
2021-11-17 15:14:26 GMT 40.486221 -80.232971 0 280 0 32
2021-11-17 15:14:22 GMT 40.486210 -80.232971 0 280 0 32
2021-11-17 15:14:12 GMT 40.486221 -80.232971 0 280 0 32
2021-11-17 15:14:10 GMT 40.486229 -80.232971 0 280 0 32
2021-11-17 15:14:06 GMT 40.486229 -80.232964 0 280 0 32
2021-11-17 15:14:04 GMT 40.486240 -80.232971 0 280 1 32
2021-11-17 15:14:03 GMT 40.486252 -80.232971 0 280 1 32
2021-11-17 15:14:01 GMT 40.486221 -80.232964 0 280 0 32
2021-11-17 15:14:00 GMT 40.486221 -80.232971 0 280 0 32
2021-11-17 15:13:50 GMT 40.486210 -80.232971 0 280 0 32
2021-11-17 15:13:34 GMT 40.486221 -80.232971 0 280 0 32
2021-11-17 15:13:21 GMT 40.486229 -80.232971 0 280 0 32
2021-11-17 15:13:12 GMT 40.486240 -80.232964 0 280 0 32
2021-11-17 15:13:06 GMT 40.486229 -80.232964 0 280 0 32
2021-11-17 15:13:00 GMT 40.486221 -80.232964 0 280 0 32
2021-11-17 15:12:58 GMT 40.486221 -80.232971 0 280 0 32
2021-11-17 15:12:51 GMT 40.486229 -80.232971 0 280 0 32
2021-11-17 15:12:37 GMT 40.486229 -80.232964 0 280 0 32
2021-11-17 15:12:25 GMT 40.486221 -80.232964 0 280 0 32
2021-11-17 15:12:18 GMT 40.486221 -80.232971 0 280 0 32
2021-11-17 15:12:07 GMT 40.486229 -80.232971 0 280 0 32
2021-11-17 15:12:06 GMT 40.486240 -80.232971 0 280 0 32
2021-11-17 15:11:58 GMT 40.486240 -80.232964 0 280 0 32
2021-11-17 15:11:56 GMT 40.486229 -80.232964 0 280 0 32
2021-11-17 15:11:52 GMT 40.486240 -80.232948 0 280 0 32
2021-11-17 15:11:50 GMT 40.486240 -80.232964 0 280 0 32
2021-11-17 15:11:48 GMT 40.486229 -80.232964 0 280 0 32
2021-11-17 15:11:46 GMT 40.486240 -80.232964 0 280 0 32
2021-11-17 15:11:42 GMT 40.486229 -80.232964 0 280 0 32
2021-11-17 15:11:19 GMT 40.486240 -80.232971 0 280 0 32
2021-11-17 15:11:15 GMT 40.486240 -80.232971 0 280 0 32
2021-11-17 15:11:07 GMT 40.486240 -80.232964 0 280 0 32
2021-11-17 15:11:03 GMT 40.486229 -80.232971 0 280 0 32
2021-11-17 15:11:01 GMT 40.486229 -80.232964 0 280 0 32
2021-11-17 15:10:53 GMT 40.486229 -80.232948 0 280 0 32
2021-11-17 15:10:51 GMT 40.486221 -80.232964 0 280 0 32
2021-11-17 15:10:48 GMT 40.486221 -80.232964 0 280 0 32
2021-11-17 15:10:44 GMT 40.486221 -80.232971 0 280 0 32
2021-11-17 15:10:37 GMT 40.486229 -80.232971 0 280 0 32
2021-11-17 15:10:34 GMT 40.486221 -80.232971 0 280 0 32
2021-11-17 15:10:29 GMT 40.486229 -80.232971 0 280 0 32
2021-11-17 15:10:28 GMT 40.486229 -80.232979 0 280 1 32
2021-11-17 15:10:25 GMT 40.486229 -80.232964 0 280 0 32
2021-11-17 15:10:13 GMT 40.486229 -80.232948 0 280 0 32
2021-11-17 15:10:10 GMT 40.486229 -80.232964 0 280 0 32
2021-11-17 15:10:07 GMT 40.486240 -80.232964 0 280 0 32
2021-11-17 15:10:06 GMT 40.486240 -80.232971 0 280 0 32
2021-11-17 15:09:56 GMT 40.486229 -80.232971 0 280 0 32
2021-11-17 15:09:54 GMT 40.486221 -80.232971 0 280 1 32
2021-11-17 15:09:53 GMT 40.486240 -80.232964 0 280 0 32
2021-11-17 15:09:50 GMT 40.486240 -80.232964 0 280 0 32
2021-11-17 15:09:45 GMT 40.486240 -80.232971 0 280 0 32
2021-11-17 15:09:42 GMT 40.486252 -80.232964 0 280 1 32
2021-11-17 15:09:40 GMT 40.486252 -80.232948 0 280 1 32
2021-11-17 15:09:39 GMT 40.486240 -80.232948 0 280 1 32
2021-11-17 15:09:36 GMT 40.486221 -80.232979 0 280 0 32
2021-11-17 15:09:35 GMT 40.486221 -80.232979 0 280 0 32
2021-11-17 15:09:32 GMT 40.486210 -80.232979 0 280 1 32
2021-11-17 15:09:30 GMT 40.486221 -80.232971 0 280 1 32
2021-11-17 15:09:28 GMT 40.486229 -80.232964 0 280 0 32
2021-11-17 15:09:27 GMT 40.486229 -80.232948 0 280 0 32
2021-11-17 15:09:26 GMT 40.486229 -80.232941 0 280 1 32
2021-11-17 15:09:24 GMT 40.486240 -80.232971 0 280 1 32
2021-11-17 15:09:22 GMT 40.486240 -80.232971 0 280 1 32
2021-11-17 15:09:19 GMT 40.486229 -80.232971 0 280 0 32
2021-11-17 15:09:18 GMT 40.486221 -80.232971 0 280 0 32
2021-11-17 15:09:17 GMT 40.486210 -80.232964 0 280 0 32
2021-11-17 15:09:14 GMT 40.486210 -80.232964 0 280 0 32
2021-11-17 15:09:12 GMT 40.486210 -80.232971 0 280 1 32
2021-11-17 15:09:11 GMT 40.486221 -80.232971 0 280 1 32
2021-11-17 15:09:06 GMT 40.486229 -80.232964 0 280 0 32
2021-11-17 15:09:04 GMT 40.486229 -80.232964 0 280 0 32
2021-11-17 15:09:02 GMT 40.486240 -80.232971 0 280 1 32
2021-11-17 15:08:59 GMT 40.486240 -80.232964 0 280 0 32
2021-11-17 15:08:57 GMT 40.486240 -80.232971 0 280 0 32
2021-11-17 15:08:56 GMT 40.486240 -80.232948 0 280 1 32
2021-11-17 15:08:55 GMT 40.486240 -80.232971 0 280 1 32
2021-11-17 15:08:53 GMT 40.486252 -80.232986 0 280 5 32
2021-11-17 15:08:52 GMT 40.486252 -80.233002 0 279 9 32
2021-11-17 15:08:50 GMT 40.486221 -80.232918 0 272 17 32
2021-11-17 15:08:49 GMT 40.486221 -80.232849 0 271 23 32
2021-11-17 15:08:47 GMT 40.486221 -80.232613 0 271 33 32
2021-11-17 15:08:46 GMT 40.486191 -80.232452 0 267 38 -32
2021-11-17 15:08:44 GMT 40.486221 -80.232010 0 271 49 -32
2021-11-17 15:08:43 GMT 40.486229 -80.231728 0 272 51 -32
2021-11-17 15:08:41 GMT 40.486221 -80.231133 0 272 59 -32
2021-11-17 15:08:40 GMT 40.486179 -80.230431 950 271 68 1408
2021-11-17 15:08:37 GMT 40.486172 -80.229622 950 272 77 1408
2021-11-17 15:08:36 GMT 40.486149 -80.229187 950 272 82 -736
2021-11-17 15:08:35 GMT 40.486130 -80.228706 925 270 85 928
2021-11-17 15:08:33 GMT 40.486111 -80.227707 925 270 98 -192
2021-11-17 15:08:31 GMT 40.486092 -80.226562 925 271 104 32
2021-11-17 15:08:30 GMT 40.486080 -80.225952 925 271 109 -928
2021-11-17 15:08:28 GMT 40.486038 -80.224663 925 271 116 0
2021-11-17 15:08:27 GMT 40.486012 -80.223984 900 271 120 832
2021-11-17 15:08:26 GMT 40.485958 -80.222557 925 271 128 832
2021-11-17 15:08:24 GMT 40.485950 -80.221832 925 271 133 832
2021-11-17 15:08:23 GMT 40.485939 -80.221046 925 272 139 832
2021-11-17 15:08:21 GMT 40.485870 -80.219391 950 271 145 832
2021-11-17 15:08:20 GMT 40.485851 -80.217651 950 271 149 832
2021-11-17 15:08:18 GMT 40.485828 -80.216759 950 272 150 832
2021-11-17 15:08:17 GMT 40.485771 -80.214951 975 271 151 832
2021-11-17 15:08:15 GMT 40.485741 -80.214050 975 271 152 832
2021-11-17 15:08:13 GMT 40.485691 -80.212219 1,000 271 153 832
2021-11-17 15:08:12 GMT 40.485668 -80.211311 1,025 271 153 -224
2021-11-17 15:08:11 GMT 40.485619 -80.209442 1,050 271 152 -224
2021-11-17 15:08:09 GMT 40.485619 -80.208527 1,075 271 153 -224
2021-11-17 15:08:08 GMT 40.485592 -80.207611 1,075 271 154 -576
2021-11-17 15:08:07 GMT 40.485600 -80.206642 1,100 272 151 -576
2021-11-17 15:08:05 GMT 40.485561 -80.204788 1,125 272 151 -576
2021-11-17 15:08:04 GMT 40.485531 -80.203880 1,125 272 151 -576
2021-11-17 15:08:02 GMT 40.485458 -80.202049 1,150 272 151 -576
2021-11-17 15:08:01 GMT 40.485378 -80.200218 1,175 272 150 -576
2021-11-17 15:07:59 GMT 40.485352 -80.199333 1,175 272 151 -576
2021-11-17 15:07:58 GMT 40.485329 -80.198402 1,200 272 150 -576
2021-11-17 15:07:56 GMT 40.485271 -80.196617 1,225 272 152 -576
2021-11-17 15:07:55 GMT 40.485241 -80.195671 1,225 272 150 -576
2021-11-17 15:07:53 GMT 40.485180 -80.193810 1,300 271 149 -576
2021-11-17 15:07:52 GMT 40.485161 -80.192932 1,250 271 150 -576
2021-11-17 15:07:50 GMT 40.485130 -80.191071 1,300 272 147 -576
2021-11-17 15:07:48 GMT 40.485039 -80.189278 1,300 271 147 -576
2021-11-17 15:07:47 GMT 40.485001 -80.188393 1,325 271 147 -576
2021-11-17 15:07:45 GMT 40.484970 -80.186569 1,350 271 146 -576
2021-11-17 15:07:44 GMT 40.484951 -80.185677 1,350 270 146 -576
2021-11-17 15:07:42 GMT 40.484940 -80.183922 1,375 271 146 -576
2021-11-17 15:07:41 GMT 40.484921 -80.183006 1,400 270 145 -576
2021-11-17 15:07:39 GMT 40.484901 -80.181221 1,425 271 144 -576
2021-11-17 15:07:38 GMT 40.484890 -80.180298 1,425 271 143 -576
2021-11-17 15:07:37 GMT 40.484879 -80.178520 1,450 271 141 -576
2021-11-17 15:07:35 GMT 40.484871 -80.177628 1,475 271 140 -576
2021-11-17 15:07:34 GMT 40.484859 -80.176773 1,475 271 140 -576
2021-11-17 15:07:32 GMT 40.484840 -80.175041 1,500 272 139 -576
2021-11-17 15:07:31 GMT 40.484779 -80.173332 1,550 272 138 -576
2021-11-17 15:07:29 GMT 40.484730 -80.172501 1,575 272 139 -576
2021-11-17 15:07:28 GMT 40.484699 -80.170799 1,600 272 138 -576
2021-11-17 15:07:26 GMT 40.484669 -80.169960 1,600 272 138 -576
2021-11-17 15:07:25 GMT 40.484619 -80.169128 1,625 271 138 -576
2021-11-17 15:07:23 GMT 40.484558 -80.167458 1,650 271 139 -576
2021-11-17 15:07:22 GMT 40.484550 -80.166634 1,675 271 139 -576
2021-11-17 15:07:20 GMT 40.484531 -80.164909 1,700 271 138 -576
2021-11-17 15:07:19 GMT 40.484509 -80.164070 1,700 271 138 -576
2021-11-17 15:07:18 GMT 40.484501 -80.162361 1,725 272 137 -576
2021-11-17 15:07:16 GMT 40.484489 -80.161522 1,750 272 137 -576
2021-11-17 15:07:14 GMT 40.484440 -80.159882 1,775 272 137 -576
2021-11-17 15:07:13 GMT 40.484402 -80.159050 1,775 272 138 -576
2021-11-17 15:07:11 GMT 40.484310 -80.157379 1,800 272 137 -576
2021-11-17 15:07:10 GMT 40.484291 -80.156548 1,825 272 137 -576
2021-11-17 15:07:08 GMT 40.484261 -80.154861 1,850 272 137 -576
2021-11-17 15:07:07 GMT 40.484219 -80.154022 1,900 272 136 -832
2021-11-17 15:07:06 GMT 40.484192 -80.153191 1,850 272 136 -832
2021-11-17 15:07:05 GMT 40.484180 -80.152351 1,875 273 136 -832
2021-11-17 15:07:03 GMT 40.484070 -80.150673 1,900 272 135 -832
2021-11-17 15:07:02 GMT 40.484039 -80.149841 1,900 272 135 -832
2021-11-17 15:07:00 GMT 40.483959 -80.148201 1,925 271 135 -832
2021-11-17 15:06:59 GMT 40.483940 -80.147377 1,925 271 135 -832
2021-11-17 15:06:58 GMT 40.483910 -80.145752 1,950 271 135 -832
2021-11-17 15:06:56 GMT 40.483891 -80.144913 1,975 271 134 -832
2021-11-17 15:06:54 GMT 40.483860 -80.143227 2,000 272 133 -832
2021-11-17 15:06:53 GMT 40.483860 -80.142418 2,000 272 133 -832
2021-11-17 15:06:52 GMT 40.483849 -80.141586 2,000 272 133 -832
2021-11-17 15:06:50 GMT 40.483749 -80.139977 2,025 272 132 -832
2021-11-17 15:06:48 GMT 40.483700 -80.138390 2,050 272 133 -832
2021-11-17 15:06:47 GMT 40.483650 -80.137589 2,075 271 133 -832
2021-11-17 15:06:46 GMT 40.483620 -80.135971 2,100 272 133 -832
2021-11-17 15:06:44 GMT 40.483589 -80.135170 2,100 271 133 -832
2021-11-17 15:06:43 GMT 40.483559 -80.134392 2,125 271 133 -832
2021-11-17 15:06:41 GMT 40.483521 -80.132782 2,150 271 133 -832
2021-11-17 15:06:40 GMT 40.483490 -80.131943 2,150 271 133 -832
2021-11-17 15:06:39 GMT 40.483452 -80.130333 2,175 271 133 -832
2021-11-17 15:06:37 GMT 40.483429 -80.129517 2,225 271 133 -832
2021-11-17 15:06:36 GMT 40.483421 -80.128723 2,225 271 133 -832
2021-11-17 15:06:34 GMT 40.483391 -80.127113 2,225 272 133 -832
2021-11-17 15:06:32 GMT 40.483360 -80.125488 2,250 272 133 -832
2021-11-17 15:06:31 GMT 40.483341 -80.124687 2,275 272 133 -832
2021-11-17 15:06:29 GMT 40.483280 -80.123047 2,275 272 132 -832
2021-11-17 15:06:28 GMT 40.483250 -80.122253 2,300 272 132 -832
2021-11-17 15:06:26 GMT 40.483189 -80.120644 2,325 272 132 -832
2021-11-17 15:06:25 GMT 40.483158 -80.119843 2,400 272 132 -832
2021-11-17 15:06:23 GMT 40.483089 -80.118233 2,375 271 132 -832
2021-11-17 15:06:22 GMT 40.483059 -80.117416 2,375 271 131 -832
2021-11-17 15:06:20 GMT 40.483009 -80.115837 2,500 271 132 -832
2021-11-17 15:06:19 GMT 40.482990 -80.115044 2,500 271 132 -832
2021-11-17 15:06:18 GMT 40.482971 -80.114220 2,500 271 131 -832
2021-11-17 15:06:16 GMT 40.482948 -80.112610 2,500 271 131 -832
2021-11-17 15:06:15 GMT 40.482922 -80.111816 2,475 270 131 -832
2021-11-17 15:06:13 GMT 40.482899 -80.110260 2,475 270 131 -832
2021-11-17 15:06:12 GMT 40.482880 -80.109467 2,500 270 131 -832
2021-11-17 15:06:11 GMT 40.482868 -80.107872 2,500 271 131 -832
2021-11-17 15:06:09 GMT 40.482868 -80.107079 2,525 271 131 -832
2021-11-17 15:06:07 GMT 40.482861 -80.105499 2,550 271 132 -32
2021-11-17 15:06:06 GMT 40.482849 -80.104721 2,550 271 133 -32
2021-11-17 15:06:05 GMT 40.482849 -80.103951 2,550 271 134 -32
2021-11-17 15:06:03 GMT 40.482819 -80.102379 2,575 272 136 -32
2021-11-17 15:06:02 GMT 40.482792 -80.100769 2,700 272 137 -32
2021-11-17 15:06:00 GMT 40.482761 -80.099983 2,700 272 139 -32
2021-11-17 15:05:59 GMT 40.482731 -80.099167 2,700 272 140 -32
2021-11-17 15:05:57 GMT 40.482689 -80.097542 2,700 272 142 -32
2021-11-17 15:05:56 GMT 40.482658 -80.096710 2,700 272 143 -32
2021-11-17 15:05:54 GMT 40.482590 -80.095009 2,700 272 144 -32
2021-11-17 15:05:53 GMT 40.482552 -80.094177 2,700 272 145 -32
2021-11-17 15:05:51 GMT 40.482491 -80.092438 2,800 272 146 -32
2021-11-17 15:05:50 GMT 40.482460 -80.091599 2,800 272 148 -32
2021-11-17 15:05:48 GMT 40.482368 -80.089851 2,800 271 149 -32
2021-11-17 15:05:47 GMT 40.482330 -80.088943 2,800 271 149 32
2021-11-17 15:05:45 GMT 40.482269 -80.087181 2,800 270 151 32
2021-11-17 15:05:43 GMT 40.482208 -80.085411 2,800 269 155 32
2021-11-17 15:05:42 GMT 40.482201 -80.084541 2,800 269 159 32
2021-11-17 15:05:41 GMT 40.482182 -80.083588 2,800 269 159 32
2021-11-17 15:04:16 GMT 40.454407 -80.014160 2,875 9 224 192
2021-11-17 15:03:08 GMT 40.397221 -80.064445 3,000 66 260
2021-11-17 15:02:24 GMT 40.375557 -80.129723 2,900 49 258
2021-11-17 15:00:25 GMT 40.277088 -80.271172 4,475 38 280 -1216
2021-11-17 15:00:05 GMT 40.257442 -80.291145 4,875 38 279 -1408
2021-11-17 14:59:05 GMT 40.195831 -80.354721 6,400 37 289
We lost coverage of the aircraft here for a total of 5 minutes
2021-11-17 14:53:39 GMT 39.779251 -80.770592 12,200 30 418 -2432
2021-11-17 14:53:16 GMT 39.741348 -80.798950 13,075 30 419 -2560
2021-11-17 14:53:02 GMT 39.716320 -80.817627 13,675 29 423 -2432
2021-11-17 14:52:58 GMT 39.710220 -80.822174 13,825 29 425 -2432
2021-11-17 14:52:42 GMT 39.683075 -80.842300 14,525 29 429 -2944
2021-11-17 14:52:33 GMT 39.666687 -80.854362 15,000 29 429 -2944
2021-11-17 14:52:24 GMT 39.652634 -80.864746 15,375 30 431 -2752
2021-11-17 14:52:15 GMT 39.634621 -80.878235 15,850 30 434 -2688
2021-11-17 14:52:04 GMT 39.617352 -80.891174 16,250 29 438 -2496
2021-11-17 14:51:53 GMT 39.598984 -80.904816 16,700 29 441 -2688
2021-11-17 14:51:44 GMT 39.579987 -80.918907 17,150 29 444 -2496
2021-11-17 14:51:32 GMT 39.560650 -80.933167 17,625 29 447 -2624
2021-11-17 14:51:26 GMT 39.547478 -80.942810 17,925 29 450 -2496
2021-11-17 14:51:22 GMT 39.542953 -80.946129 18,025 29 450 -2496
2021-11-17 14:51:15 GMT 39.528259 -80.957001 18,350 29 452 -2624
2021-11-17 14:51:11 GMT 39.523315 -80.960632 18,475 29 452 -2624
2021-11-17 14:51:03 GMT 39.507706 -80.972160 18,800 29 452 -2048
2021-11-17 14:50:59 GMT 39.501156 -80.976990 18,900 29 451 -1728
2021-11-17 14:50:52 GMT 39.485703 -80.988464 19,000 29 452 -64
2021-11-17 14:50:44 GMT 39.470993 -80.999329 19,000 29 452 0
2021-11-17 14:50:40 GMT 39.466415 -81.002678 19,000 29 452 0
2021-11-17 14:50:32 GMT 39.452591 -81.012886 19,000 29 453 0
2021-11-17 14:50:29 GMT 39.445667 -81.018005 19,000 29 453 0
2021-11-17 14:50:21 GMT 39.429092 -81.030273 19,000 29 454 64
2021-11-17 14:50:10 GMT 39.410660 -81.043884 19,000 29 455 64
2021-11-17 14:50:00 GMT 39.390564 -81.058739 18,975 29 455 128
2021-11-17 14:49:52 GMT 39.377190 -81.068604 19,000 29 456 -256
2021-11-17 14:49:49 GMT 39.372253 -81.072266 19,025 29 456 -640
2021-11-17 14:49:38 GMT 39.352608 -81.086731 19,250 29 455 -1856
2021-11-17 14:49:31 GMT 39.338318 -81.097229 19,525 29 454 -2240
2021-11-17 14:49:28 GMT 39.334671 -81.099937 19,600 29 454 -2176
2021-11-17 14:49:18 GMT 39.315628 -81.113853 19,975 29 455 -2240
2021-11-17 14:49:08 GMT 39.296402 -81.127945 20,350 29 457 -2176
2021-11-17 14:49:00 GMT 39.281105 -81.139160 20,675 29 459 -2240
2021-11-17 14:48:56 GMT 39.275528 -81.143227 20,775 29 460 -2240
2021-11-17 14:48:46 GMT 39.257355 -81.156540 21,150 29 462 -2304
2021-11-17 14:48:37 GMT 39.238495 -81.170273 21,525 29 464 -2240
2021-11-17 14:48:26 GMT 39.219749 -81.183960 21,900 29 467 -2176
2021-11-17 14:48:18 GMT 39.204151 -81.195312 22,225 29 467 -2240
2021-11-17 14:48:15 GMT 39.199814 -81.198456 22,300 29 467 -2240
2021-11-17 14:48:05 GMT 39.179489 -81.213264 22,700 29 468 -2240
2021-11-17 14:47:57 GMT 39.164955 -81.223877 23,000 29 470 -2304
2021-11-17 14:47:54 GMT 39.160034 -81.227478 23,100 29 472 -2240
2021-11-17 14:47:45 GMT 39.140656 -81.241699 23,475 29 474 -2240
2021-11-17 14:47:33 GMT 39.120026 -81.256851 23,875 29 477 -2304
2021-11-17 14:47:26 GMT 39.104813 -81.268005 24,175 29 480 -2240
2021-11-17 14:47:23 GMT 39.100571 -81.271065 24,250 29 481 -2240
2021-11-17 14:47:13 GMT 39.078690 -81.287064 24,700 29 484 -2240
2021-11-17 14:47:05 GMT 39.064636 -81.297333 24,950 29 486 -2112
2021-11-17 14:47:02 GMT 39.059563 -81.301025 25,025 29 486 -2048
2021-11-17 14:46:53 GMT 39.040524 -81.314941 25,350 29 491 -1984
2021-11-17 14:46:42 GMT 39.019547 -81.330238 25,725 29 494 -1920
2021-11-17 14:46:34 GMT 39.002655 -81.342590 26,000 29 494 -1920
2021-11-17 14:46:31 GMT 38.999039 -81.345161 26,050 29 493 -1920
2021-11-17 14:46:21 GMT 38.976608 -81.361519 26,400 29 493 -1920
2021-11-17 14:46:11 GMT 38.957794 -81.375252 26,725 29 491 -1984
2021-11-17 14:46:00 GMT 38.936279 -81.390900 27,075 29 489 -1920
2021-11-17 14:45:50 GMT 38.915680 -81.405945 27,400 29 488 -1920
2021-11-17 14:45:40 GMT 38.897003 -81.419617 27,700 29 488 -1920
2021-11-17 14:45:30 GMT 38.876240 -81.434753 28,050 29 486 -1920
2021-11-17 14:45:18 GMT 38.853928 -81.450966 28,425 29 485 -1920
2021-11-17 14:45:08 GMT 38.835022 -81.464699 28,700 29 484 -1920
2021-11-17 14:44:59 GMT 38.815907 -81.478577 29,050 29 484 -1920
2021-11-17 14:44:48 GMT 38.795052 -81.493652 29,400 29 482 -1920
2021-11-17 14:44:37 GMT 38.774242 -81.508606 29,750 29 481 -1920
2021-11-17 14:44:27 GMT 38.754822 -81.522552 30,075 29 481 -1984
2021-11-17 14:44:16 GMT 38.733418 -81.537842 30,425 29 483 -1920
2021-11-17 14:44:07 GMT 38.714050 -81.551636 30,725 29 483 -1856
2021-11-17 14:43:55 GMT 38.693523 -81.566101 31,075 29 482 -1984
2021-11-17 14:43:45 GMT 38.673615 -81.580177 31,400 28 482 -1984
2021-11-17 14:43:36 GMT 38.653061 -81.594620 31,725 28 483 -1408
2021-11-17 14:43:25 GMT 38.633102 -81.608658 31,900 28 483 -960
2021-11-17 14:43:14 GMT 38.613007 -81.622986 32,075 29 483 -960
2021-11-17 14:43:04 GMT 38.592682 -81.636780 32,250 23 481 -1024
2021-11-17 14:42:53 GMT 38.570435 -81.646805 32,450 12 473 -960
2021-11-17 14:42:43 GMT 38.547272 -81.651703 32,625 2 464 -960
2021-11-17 14:42:33 GMT 38.504520 -81.647095 32,825 343 448 -960
2021-11-17 14:42:22 GMT 38.504520 -81.647095 32,950 344 449 -960
2021-11-17 14:42:13 GMT 38.484833 -81.638565 33,125 335 443 -1024
2021-11-17 14:42:01 GMT 38.464020 -81.624023 33,300 325 438 -1024
2021-11-17 14:41:52 GMT 38.449493 -81.609489 33,450 316 434 -1024
2021-11-17 14:41:40 GMT 38.434341 -81.588295 33,650 306 431 -1088
2021-11-17 14:41:31 GMT 38.423950 -81.567696 33,825 296 430 -1088
2021-11-17 14:41:21 GMT 38.415325 -81.541809 34,000 287 428 -448
2021-11-17 14:41:10 GMT 38.410583 -81.516045 34,000 270 427 0
2021-11-17 14:40:59 GMT 38.409302 -81.491264 34,000 268 426 0
2021-11-17 14:40:49 GMT 38.411415 -81.465294 34,000 259 427 64
2021-11-17 14:40:36 GMT 38.417141 -81.435303 34,000 256 427 0
2021-11-17 14:40:29 GMT 38.421425 -81.413879 34,000 256 427 -64
2021-11-17 14:40:17 GMT 38.426468 -81.388809 34,000 256 426 0
2021-11-17 14:40:08 GMT 38.431152 -81.365234 34,000 256 425 0
2021-11-17 14:39:57 GMT 38.436554 -81.338013 34,000 256 425 0
2021-11-17 14:39:46 GMT 38.441711 -81.311783 34,000 256 425 0
2021-11-17 14:39:37 GMT 38.446152 -81.289391 34,000 256 425 0
2021-11-17 14:39:25 GMT 38.451416 -81.262642 34,000 256 426 0
2021-11-17 14:39:14 GMT 38.456772 -81.235657 34,000 256 426 0
2021-11-17 14:39:04 GMT 38.462036 -81.209084 34,000 256 426 0
2021-11-17 14:38:54 GMT 38.466705 -81.185501 34,000 256 426 0
2021-11-17 14:38:45 GMT 38.471191 -81.162636 34,000 256 426 0
2021-11-17 14:38:33 GMT 38.476501 -81.135590 34,000 256 426 0
2021-11-17 14:38:24 GMT 38.481522 -81.110291 34,000 256 426 0
2021-11-17 14:38:11 GMT 38.491299 -81.060608 34,000 256 426 0
2021-11-17 14:38:02 GMT 38.491299 -81.060608 34,000 256 426 0
2021-11-17 14:37:52 GMT 38.501446 -81.008850 34,000 256 427 0
2021-11-17 14:37:41 GMT 38.501446 -81.008850 34,000 256 427 0
2021-11-17 14:37:34 GMT 38.505077 -80.990295 34,000 256 427 0
2021-11-17 14:37:30 GMT 38.506939 -80.980774 34,000 256 427 0
2021-11-17 14:37:19 GMT 38.512253 -80.953651 34,000 257 427 0
2021-11-17 14:37:09 GMT 38.517040 -80.929199 34,000 257 428 64
2021-11-17 14:37:04 GMT 38.519371 -80.917175 34,000 257 428 0
2021-11-17 14:37:01 GMT 38.521088 -80.908394 34,000 257 428 0
2021-11-17 14:36:58 GMT 38.522350 -80.901794 34,000 257 428 -64
2021-11-17 14:36:48 GMT 38.526817 -80.879028 34,000 257 428 0
2021-11-17 14:36:43 GMT 38.529190 -80.866776 34,000 257 428 0
2021-11-17 14:36:39 GMT 38.531387 -80.855492 34,000 257 428 0
2021-11-17 14:36:36 GMT 38.532349 -80.850601 34,000 257 428 0
2021-11-17 14:36:26 GMT 38.537479 -80.824158 34,000 257 428 0
2021-11-17 14:36:23 GMT 38.538620 -80.818298 34,000 257 428 0
2021-11-17 14:36:19 GMT 38.540863 -80.806534 34,000 257 428 0
2021-11-17 14:36:09 GMT 38.545807 -80.781097 34,000 257 428 0
2021-11-17 14:35:58 GMT 38.550838 -80.755127 34,000 257 428 0
2021-11-17 14:35:47 GMT 38.555820 -80.729431 34,000 257 428 0
2021-11-17 14:35:38 GMT 38.560501 -80.705147 34,000 257 428 0
2021-11-17 14:35:26 GMT 38.566040 -80.676247 34,000 257 428 0
2021-11-17 14:35:17 GMT 38.572128 -80.644661 34,000 257 427 0
2021-11-17 14:35:13 GMT 38.572128 -80.644661 34,000 257 427 0
2021-11-17 14:35:03 GMT 38.580074 -80.603027 34,000 257 427 0
2021-11-17 14:34:55 GMT 38.585102 -80.576843 34,000 257 427 0
2021-11-17 14:34:46 GMT 38.590668 -80.547760 34,000 257 427 0
2021-11-17 14:34:33 GMT 38.590668 -80.547760 34,000 257 427 0
2021-11-17 14:34:25 GMT 38.600235 -80.497421 34,000 257 425 0
2021-11-17 14:34:13 GMT 38.600235 -80.497421 34,000 257 425 0
2021-11-17 14:34:03 GMT 38.604721 -80.473717 34,000 257 425 0
2021-11-17 14:33:57 GMT 38.607605 -80.458611 34,000 257 425 0
2021-11-17 14:33:52 GMT 38.609482 -80.448586 34,000 257 425 0
2021-11-17 14:33:42 GMT 38.614655 -80.421532 34,000 257 425 0
2021-11-17 14:33:31 GMT 38.619549 -80.395935 34,000 257 425 0
2021-11-17 14:33:23 GMT 38.623581 -80.374779 34,000 257 424 -64
2021-11-17 14:33:13 GMT 38.627792 -80.352570 34,000 257 424 0
2021-11-17 14:33:10 GMT 38.629280 -80.344788 34,000 257 424 0
2021-11-17 14:33:02 GMT 38.633286 -80.323608 34,000 257 424 0
2021-11-17 14:32:54 GMT 38.636902 -80.304382 34,000 257 424 0
2021-11-17 14:32:50 GMT 38.638031 -80.298340 34,000 257 423 0
2021-11-17 14:32:45 GMT 38.640472 -80.285400 34,000 257 423 0
2021-11-17 14:32:40 GMT 38.642715 -80.273514 34,000 257 423 0
2021-11-17 14:32:30 GMT 38.647995 -80.245544 34,000 257 423 0
2021-11-17 14:32:19 GMT 38.652325 -80.222412 34,000 257 423 0
2021-11-17 14:32:16 GMT 38.654434 -80.211243 34,000 257 423 0
2021-11-17 14:32:07 GMT 38.658005 -80.192253 34,000 257 423 0
2021-11-17 14:31:55 GMT 38.663956 -80.160606 34,000 257 423 0
2021-11-17 14:31:48 GMT 38.666794 -80.145561 34,000 257 423 0
2021-11-17 14:31:38 GMT 38.671734 -80.119263 34,000 257 423 0
2021-11-17 14:31:34 GMT 38.672947 -80.112671 34,000 257 423 0
2021-11-17 14:31:27 GMT 38.676270 -80.094933 34,000 257 423 0
2021-11-17 14:31:23 GMT 38.678764 -80.081543 34,000 257 423 64
2021-11-17 14:31:14 GMT 38.682358 -80.062332 34,000 257 423 0
2021-11-17 14:31:04 GMT 38.687119 -80.036774 34,000 257 423 0
2021-11-17 14:30:56 GMT 38.690414 -80.019279 34,000 257 423 0
2021-11-17 14:30:51 GMT 38.693054 -80.005188 34,000 257 423 0
2021-11-17 14:30:46 GMT 38.694717 -79.996414 34,000 257 424 0
2021-11-17 14:30:37 GMT 38.699387 -79.971336 34,000 257 424 -64
2021-11-17 14:30:33 GMT 38.701492 -79.960106 34,000 257 424 0
2021-11-17 14:30:26 GMT 38.704239 -79.945480 34,000 257 424 0
2021-11-17 14:30:15 GMT 38.708885 -79.920593 34,000 257 424 0
2021-11-17 14:30:09 GMT 38.711632 -79.905762 34,000 257 423 64
2021-11-17 14:30:04 GMT 38.714100 -79.892578 34,000 257 423 64
2021-11-17 14:29:52 GMT 38.719406 -79.863586 34,000 257 423 0
2021-11-17 14:29:47 GMT 38.721409 -79.852661 34,000 258 422 0
2021-11-17 14:29:45 GMT 38.722755 -79.845093 34,000 258 422 0
2021-11-17 14:29:34 GMT 38.727318 -79.820007 34,000 257 423 0
2021-11-17 14:29:18 GMT 38.734440 -79.781067 34,000 257 424 0
2021-11-17 14:29:11 GMT 38.737934 -79.761841 34,000 257 424 0
2021-11-17 14:29:03 GMT 38.741329 -79.743286 34,000 257 423 0
2021-11-17 14:28:53 GMT 38.746033 -79.717468 34,000 257 423 0
2021-11-17 14:28:41 GMT 38.751015 -79.690186 34,000 257 423 0
2021-11-17 14:28:34 GMT 38.754181 -79.672913 34,000 257 423 0
2021-11-17 14:28:32 GMT 38.755051 -79.668076 34,000 257 423 0
2021-11-17 14:28:21 GMT 38.760231 -79.639832 34,000 257 423 0
2021-11-17 14:28:11 GMT 38.764374 -79.617188 34,000 257 423 0
2021-11-17 14:28:05 GMT 38.766724 -79.604248 34,000 257 423 0
2021-11-17 14:27:59 GMT 38.770065 -79.586273 34,000 257 423 0
2021-11-17 14:27:44 GMT 38.776428 -79.551521 34,000 257 422 0
2021-11-17 14:27:26 GMT 38.784485 -79.507507 34,000 257 422 0
2021-11-17 14:27:25 GMT 38.784943 -79.504829 34,000 257 421 0
2021-11-17 14:27:14 GMT 38.789658 -79.478859 34,000 257 421 0
2021-11-17 14:27:07 GMT 38.792725 -79.461845 34,000 257 421 0
2021-11-17 14:27:04 GMT 38.794308 -79.453125 34,000 257 421 0
2021-11-17 14:26:59 GMT 38.796707 -79.439987 34,000 257 421 0
2021-11-17 14:26:53 GMT 38.798676 -79.429001 34,000 258 422 0
2021-11-17 14:26:38 GMT 38.805294 -79.392517 34,000 257 423 0
2021-11-17 14:26:30 GMT 38.809017 -79.372070 34,000 257 423 0
2021-11-17 14:26:21 GMT 38.813004 -79.350365 34,000 257 423 -64
2021-11-17 14:26:16 GMT 38.815613 -79.336037 34,000 257 422 0
2021-11-17 14:26:10 GMT 38.817818 -79.324097 34,000 257 422 0
2021-11-17 14:26:01 GMT 38.822342 -79.299553 34,000 257 423 0
2021-11-17 14:25:50 GMT 38.826988 -79.273743 34,000 258 422 0
2021-11-17 14:25:43 GMT 38.829685 -79.258606 34,000 258 422 0
2021-11-17 14:25:39 GMT 38.831406 -79.248863 34,000 257 423 0
2021-11-17 14:25:32 GMT 38.835228 -79.229431 34,000 252 425 0
2021-11-17 14:25:28 GMT 38.837448 -79.219788 34,000 253 425 0
2021-11-17 14:25:21 GMT 38.841476 -79.204025 34,000 247 427 64
2021-11-17 14:25:17 GMT 38.843746 -79.195984 34,000 245 428 0
2021-11-17 14:25:09 GMT 38.850262 -79.175354 34,000 246 428 0
2021-11-17 14:25:06 GMT 38.851868 -79.170708 34,000 245 429 0
2021-11-17 14:24:58 GMT 38.859512 -79.150703 34,000 243 429 0
2021-11-17 14:24:48 GMT 38.869812 -79.125687 34,000 243 429 0
2021-11-17 14:24:41 GMT 38.875263 -79.112427 34,000 243 429 0
2021-11-17 14:24:35 GMT 38.879963 -79.100952 34,000 243 429 0
2021-11-17 14:24:29 GMT 38.886337 -79.085503 34,000 243 428 0
2021-11-17 14:24:24 GMT 38.890686 -79.074936 34,000 243 428 64
2021-11-17 14:24:18 GMT 38.895859 -79.062332 34,000 243 426 -64
2021-11-17 14:24:13 GMT 38.901306 -79.049080 34,000 243 428 0
2021-11-17 14:24:09 GMT 38.905289 -79.039429 34,000 243 428 0
2021-11-17 14:24:02 GMT 38.911758 -79.023743 34,000 243 428 0
2021-11-17 14:23:58 GMT 38.914810 -79.016357 34,000 243 427 0
2021-11-17 14:23:54 GMT 38.919022 -79.006027 34,000 243 427 0
2021-11-17 14:23:47 GMT 38.924374 -78.993042 34,000 243 425 0
2021-11-17 14:23:44 GMT 38.927673 -78.985008 34,000 243 427 -64
2021-11-17 14:23:42 GMT 38.929962 -78.979401 34,000 243 427 -64
2021-11-17 14:23:38 GMT 38.934010 -78.969543 34,000 243 427 0
2021-11-17 14:23:34 GMT 38.937038 -78.962158 34,000 243 427 0
2021-11-17 14:23:26 GMT 38.944427 -78.944229 34,000 243 426 -64
2021-11-17 14:23:23 GMT 38.946808 -78.938438 34,000 243 426 -64
2021-11-17 14:23:16 GMT 38.952850 -78.923630 34,000 243 425 0
2021-11-17 14:23:10 GMT 38.959007 -78.908630 34,000 243 425 0
2021-11-17 14:23:06 GMT 38.962280 -78.900581 34,000 243 425 0
2021-11-17 14:23:02 GMT 38.968323 -78.885834 34,000 243 425 0
2021-11-17 14:22:56 GMT 38.971527 -78.878075 34,000 243 425 0
2021-11-17 14:22:51 GMT 38.977341 -78.863747 34,000 243 424 64
2021-11-17 14:22:44 GMT 38.982330 -78.851501 34,000 243 421 0
2021-11-17 14:22:40 GMT 38.986908 -78.840340 34,000 243 424 0
2021-11-17 14:22:37 GMT 38.988991 -78.835205 34,000 243 424 0
2021-11-17 14:22:34 GMT 38.991898 -78.828094 34,000 243 424 0
2021-11-17 14:22:28 GMT 38.997089 -78.815369 34,000 243 424 0
2021-11-17 14:22:23 GMT 39.002117 -78.803101 34,000 243 424 0
2021-11-17 14:22:19 GMT 39.004910 -78.796204 34,000 243 423 0
2021-11-17 14:22:13 GMT 39.010483 -78.782600 34,000 243 423 0
2021-11-17 14:22:05 GMT 39.018364 -78.763245 34,000 243 423 0
2021-11-17 14:22:01 GMT 39.024323 -78.748596 34,000 243 423 0
2021-11-17 14:21:58 GMT 39.024323 -78.748596 34,000 243 423 0
2021-11-17 14:21:54 GMT 39.035294 -78.721695 34,000 243 422 0
2021-11-17 14:21:46 GMT 39.035294 -78.721695 34,000 243 422 0
2021-11-17 14:21:43 GMT 39.038521 -78.713684 34,000 243 422 0
2021-11-17 14:21:39 GMT 39.041592 -78.706116 34,000 243 421 0
2021-11-17 14:21:33 GMT 39.051361 -78.682175 34,000 243 421 0
2021-11-17 14:21:28 GMT 39.051361 -78.682175 34,000 243 421 64
2021-11-17 14:21:24 GMT 39.055790 -78.671265 34,000 243 421 0
2021-11-17 14:21:18 GMT 39.065010 -78.648682 34,000 243 421 0
2021-11-17 14:21:13 GMT 39.071480 -78.632690 34,000 243 421 0
2021-11-17 14:21:06 GMT 39.071480 -78.632690 34,000 243 421 0
2021-11-17 14:21:01 GMT 39.075577 -78.622459 34,000 243 421 0
2021-11-17 14:20:57 GMT 39.079021 -78.614075 34,000 243 420 0
2021-11-17 14:20:54 GMT 39.082581 -78.605209 34,000 243 420 0
2021-11-17 14:20:51 GMT 39.084373 -78.600769 34,000 243 420 0
2021-11-17 14:20:47 GMT 39.089310 -78.588562 34,000 243 420 0
2021-11-17 14:20:44 GMT 39.091095 -78.584129 34,000 243 420 -64
2021-11-17 14:20:39 GMT 39.096405 -78.571053 34,000 243 420 -64
2021-11-17 14:20:30 GMT 39.103821 -78.552727 34,000 243 420 0
2021-11-17 14:20:26 GMT 39.107254 -78.544304 34,000 243 420 0
2021-11-17 14:20:20 GMT 39.112537 -78.531250 34,000 243 419 0
2021-11-17 14:20:16 GMT 39.116364 -78.521736 34,000 243 419 0
2021-11-17 14:20:10 GMT 39.121708 -78.508484 34,000 243 419 0
2021-11-17 14:20:06 GMT 39.125107 -78.500061 34,000 243 419 0
2021-11-17 14:20:02 GMT 39.129776 -78.488541 34,000 243 419 0
2021-11-17 14:19:58 GMT 39.132557 -78.481689 34,000 243 419 -64
2021-11-17 14:19:51 GMT 39.138794 -78.466187 34,000 243 419 0
2021-11-17 14:19:48 GMT 39.146576 -78.446922 34,000 243 418 0
2021-11-17 14:19:42 GMT 39.146576 -78.446922 34,000 243 419 0
2021-11-17 14:19:39 GMT 39.149506 -78.439636 34,000 243 419 0
2021-11-17 14:19:34 GMT 39.153225 -78.430359 34,000 243 419 0
2021-11-17 14:19:29 GMT 39.159279 -78.415344 34,000 243 418 0
2021-11-17 14:19:24 GMT 39.162415 -78.407570 34,000 243 418 0
2021-11-17 14:19:20 GMT 39.165985 -78.398735 34,000 243 418 0
2021-11-17 14:19:17 GMT 39.169785 -78.389244 34,000 243 418 0
2021-11-17 14:19:14 GMT 39.171474 -78.385010 34,000 243 418 0
2021-11-17 14:19:09 GMT 39.180542 -78.362434 34,000 243 418 0
2021-11-17 14:19:05 GMT 39.180542 -78.362434 34,000 243 418 0
2021-11-17 14:19:00 GMT 39.184341 -78.352943 34,000 243 418 0
2021-11-17 14:18:57 GMT 39.186325 -78.348083 34,000 243 417 64
2021-11-17 14:18:50 GMT 39.192719 -78.332100 34,000 243 418 0
2021-11-17 14:18:48 GMT 39.194412 -78.327919 34,000 243 418 0
2021-11-17 14:18:45 GMT 39.197964 -78.319092 34,000 243 418 0
2021-11-17 14:18:42 GMT 39.203640 -78.304932 34,000 243 418 -64
2021-11-17 14:18:38 GMT 39.203640 -78.304932 34,000 243 418 -64
2021-11-17 14:18:33 GMT 39.208900 -78.291870 34,000 243 418 0
2021-11-17 14:18:30 GMT 39.211029 -78.286545 34,000 243 418 64
2021-11-17 14:18:27 GMT 39.213135 -78.281288 34,000 243 418 64
2021-11-17 14:18:24 GMT 39.216953 -78.271790 34,000 243 417 0
2021-11-17 14:18:21 GMT 39.218723 -78.267334 34,000 243 417 0
2021-11-17 14:18:18 GMT 39.222244 -78.258537 34,000 243 417 0
2021-11-17 14:18:13 GMT 39.226128 -78.248779 34,000 243 417 64
2021-11-17 14:18:10 GMT 39.227848 -78.244629 34,000 243 417 64
2021-11-17 14:18:06 GMT 39.231804 -78.234680 34,000 243 417 0
2021-11-17 14:18:03 GMT 39.234650 -78.227615 34,000 243 417 -64
2021-11-17 14:18:00 GMT 39.236755 -78.222298 34,000 243 415 0
2021-11-17 14:17:57 GMT 39.239822 -78.214600 34,000 243 416 0
2021-11-17 14:17:53 GMT 39.243439 -78.205582 34,000 243 415 0
2021-11-17 14:17:50 GMT 39.245453 -78.200500 34,000 243 415 0
2021-11-17 14:17:45 GMT 39.250488 -78.187965 34,000 243 415 0
2021-11-17 14:17:42 GMT 39.255753 -78.174713 34,000 243 415 0
2021-11-17 14:17:39 GMT 39.255753 -78.174713 34,000 243 415 0
2021-11-17 14:17:36 GMT 39.258015 -78.169006 34,000 243 415 0
2021-11-17 14:17:33 GMT 39.261459 -78.160400 34,000 243 414 0
2021-11-17 14:17:30 GMT 39.263626 -78.154945 34,000 243 414 0
2021-11-17 14:17:26 GMT 39.267555 -78.145020 34,000 243 414 0
2021-11-17 14:17:23 GMT 39.269138 -78.141052 34,000 243 414 0
2021-11-17 14:17:19 GMT 39.273239 -78.130768 34,000 243 414 0
2021-11-17 14:17:15 GMT 39.276730 -78.121948 34,000 243 414 0
2021-11-17 14:17:07 GMT 39.283447 -78.105034 34,000 243 414 0
2021-11-17 14:17:04 GMT 39.285919 -78.098885 34,000 243 414 0
2021-11-17 14:17:02 GMT 39.288437 -78.092491 34,000 243 414 0
2021-11-17 14:16:58 GMT 39.292191 -78.083061 34,000 243 414 0
2021-11-17 14:16:55 GMT 39.294975 -78.076050 34,000 243 414 0
2021-11-17 14:16:51 GMT 39.298141 -78.068130 34,000 243 413 64
2021-11-17 14:16:48 GMT 39.299789 -78.063950 34,000 243 413 0
2021-11-17 14:16:45 GMT 39.302937 -78.056091 34,000 243 413 0
2021-11-17 14:16:42 GMT 39.305145 -78.050575 34,000 243 413 0
2021-11-17 14:16:40 GMT 39.310913 -78.036125 34,000 243 413 0
2021-11-17 14:16:36 GMT 39.310913 -78.036125 34,000 243 413 0
2021-11-17 14:16:33 GMT 39.314201 -78.027771 34,000 243 413 0
2021-11-17 14:16:29 GMT 39.317734 -78.019051 34,000 243 413 0
2021-11-17 14:16:26 GMT 39.320255 -78.012695 34,000 243 413 0
2021-11-17 14:16:23 GMT 39.321560 -78.009399 34,000 243 413 0
2021-11-17 14:16:20 GMT 39.324692 -78.001495 34,000 243 413 0
2021-11-17 14:16:15 GMT 39.329613 -77.989258 34,000 243 413 64
2021-11-17 14:16:12 GMT 39.332245 -77.982689 34,000 243 413 64
2021-11-17 14:16:07 GMT 39.336315 -77.972595 34,000 243 413 0
2021-11-17 14:16:02 GMT 39.340691 -77.961670 34,000 243 413 0
2021-11-17 14:15:59 GMT 39.343872 -77.953789 34,000 243 413 0
2021-11-17 14:15:56 GMT 39.345718 -77.949219 34,000 243 413 0
2021-11-17 14:15:53 GMT 39.349091 -77.940895 34,000 243 413 0
2021-11-17 14:15:49 GMT 39.351910 -77.933899 34,000 243 413 0
2021-11-17 14:15:47 GMT 39.353584 -77.929749 34,000 243 413 0
2021-11-17 14:15:44 GMT 39.357285 -77.920593 34,000 243 413 0
2021-11-17 14:15:39 GMT 39.360245 -77.913147 34,000 243 413 0
2021-11-17 14:15:36 GMT 39.363316 -77.905457 34,000 244 413 0
2021-11-17 14:15:33 GMT 39.366203 -77.898254 34,000 244 412 0
2021-11-17 14:15:28 GMT 39.370880 -77.886375 34,000 244 413 0
2021-11-17 14:15:25 GMT 39.372440 -77.882446 34,000 244 413 0
2021-11-17 14:15:22 GMT 39.376419 -77.872292 34,000 244 413 0
2021-11-17 14:15:18 GMT 39.379097 -77.865234 34,000 244 412 0
2021-11-17 14:15:15 GMT 39.381592 -77.858559 34,000 245 413 0
2021-11-17 14:15:12 GMT 39.383743 -77.852821 34,000 245 412 0
2021-11-17 14:15:09 GMT 39.386307 -77.845955 34,000 245 413 -64
2021-11-17 14:15:06 GMT 39.392258 -77.829956 34,000 245 413 0
2021-11-17 14:15:03 GMT 39.392258 -77.829956 34,000 245 413 0
2021-11-17 14:15:00 GMT 39.396469 -77.818611 34,000 245 413 0
2021-11-17 14:14:56 GMT 39.396469 -77.818611 34,000 245 413 0
2021-11-17 14:14:53 GMT 39.399906 -77.809265 34,000 245 413 0
2021-11-17 14:14:50 GMT 39.402054 -77.803505 34,000 245 413 0
2021-11-17 14:14:46 GMT 39.405025 -77.795532 34,000 245 413 0
2021-11-17 14:14:42 GMT 39.409515 -77.783501 34,000 245 413 0
2021-11-17 14:14:38 GMT 39.412476 -77.775513 34,000 245 413 0
2021-11-17 14:14:35 GMT 39.414139 -77.771027 34,000 245 413 0
2021-11-17 14:14:32 GMT 39.417458 -77.762146 34,000 245 413 0
2021-11-17 14:14:27 GMT 39.420853 -77.752991 34,000 245 414 0
2021-11-17 14:14:24 GMT 39.425858 -77.739616 34,000 245 414 0
2021-11-17 14:14:21 GMT 39.425858 -77.739616 34,000 245 414 0
2021-11-17 14:14:18 GMT 39.428558 -77.732269 34,000 245 414 0
2021-11-17 14:14:15 GMT 39.431374 -77.724670 34,000 245 414 0
2021-11-17 14:14:12 GMT 39.433052 -77.720215 34,000 245 414 0
2021-11-17 14:14:09 GMT 39.436867 -77.709961 34,000 245 415 0
2021-11-17 14:14:05 GMT 39.439613 -77.702576 34,000 245 415 0
2021-11-17 14:14:03 GMT 39.440323 -77.700569 34,000 245 415 0
2021-11-17 14:14:01 GMT 39.442474 -77.694717 34,000 245 415 0
2021-11-17 14:13:58 GMT 39.446274 -77.684448 34,000 245 415 0
2021-11-17 14:13:54 GMT 39.450275 -77.673706 34,000 245 415 0
2021-11-17 14:13:52 GMT 39.450275 -77.673706 34,000 245 416 0
2021-11-17 14:13:49 GMT 39.452183 -77.668579 34,000 245 416 0
2021-11-17 14:13:46 GMT 39.454975 -77.660950 34,000 245 416 0
2021-11-17 14:13:43 GMT 39.457211 -77.654907 34,000 245 416 0
2021-11-17 14:13:41 GMT 39.458862 -77.650414 34,000 245 416 0
2021-11-17 14:13:38 GMT 39.461353 -77.643677 34,000 245 416 0
2021-11-17 14:13:35 GMT 39.463634 -77.637390 34,000 245 416 0
2021-11-17 14:13:32 GMT 39.467545 -77.626831 34,000 245 416 0
2021-11-17 14:13:29 GMT 39.468842 -77.623245 34,000 245 416 0
2021-11-17 14:13:26 GMT 39.472412 -77.613632 34,000 245 416 0
2021-11-17 14:13:23 GMT 39.474060 -77.609093 34,000 245 416 0
2021-11-17 14:13:19 GMT 39.477650 -77.599487 34,000 245 416 0
2021-11-17 14:13:14 GMT 39.481750 -77.588196 34,000 245 416 0
2021-11-17 14:13:11 GMT 39.483719 -77.582825 34,000 245 416 0
2021-11-17 14:13:09 GMT 39.485825 -77.577209 34,000 245 416 0
2021-11-17 14:13:05 GMT 39.489029 -77.568436 34,000 245 416 0
2021-11-17 14:13:02 GMT 39.491592 -77.561508 34,000 245 416 0
2021-11-17 14:12:59 GMT 39.494873 -77.552490 34,000 245 416 0
2021-11-17 14:12:55 GMT 39.497433 -77.545532 34,000 245 416 0
2021-11-17 14:12:51 GMT 39.500832 -77.536316 34,000 245 416 0
2021-11-17 14:12:48 GMT 39.503128 -77.530037 34,000 245 416 64
2021-11-17 14:12:43 GMT 39.507210 -77.518860 34,000 245 416 0
2021-11-17 14:12:40 GMT 39.508884 -77.514343 34,000 245 416 0
2021-11-17 14:12:38 GMT 39.511002 -77.508484 34,000 245 416 0
2021-11-17 14:12:34 GMT 39.514389 -77.499290 34,000 245 416 0
2021-11-17 14:12:31 GMT 39.517170 -77.491699 34,000 245 416 0
2021-11-17 14:12:28 GMT 39.520157 -77.483589 34,000 245 416 0
2021-11-17 14:12:24 GMT 39.522354 -77.477554 34,000 245 415 0
2021-11-17 14:12:21 GMT 39.525501 -77.469055 34,000 245 415 0
2021-11-17 14:12:19 GMT 39.527458 -77.463684 34,000 245 415 0
2021-11-17 14:12:16 GMT 39.529320 -77.458496 34,000 245 415 0
2021-11-17 14:12:13 GMT 39.534023 -77.445740 34,000 245 415 0
2021-11-17 14:12:10 GMT 39.537701 -77.435669 34,000 245 414 0
2021-11-17 14:12:06 GMT 39.537701 -77.435669 34,000 245 414 0
2021-11-17 14:12:02 GMT 39.541237 -77.426025 34,000 245 414 0
2021-11-17 14:11:59 GMT 39.544449 -77.417297 34,000 245 414 0
2021-11-17 14:11:56 GMT 39.546127 -77.412598 34,000 245 414 0
2021-11-17 14:11:53 GMT 39.548904 -77.405014 34,000 245 413 0
2021-11-17 14:11:50 GMT 39.550873 -77.399635 34,000 245 413 0
2021-11-17 14:11:46 GMT 39.556694 -77.383728 34,000 245 413 0
2021-11-17 14:11:43 GMT 39.556694 -77.383728 34,000 245 413 0
2021-11-17 14:11:39 GMT 39.559937 -77.374802 34,000 245 413 0
2021-11-17 14:11:37 GMT 39.560650 -77.372803 34,000 245 413 0
2021-11-17 14:11:34 GMT 39.564236 -77.362976 34,000 245 413 0
2021-11-17 14:11:30 GMT 39.567490 -77.354019 34,000 245 413 0
2021-11-17 14:11:25 GMT 39.570847 -77.344849 34,000 245 413 0
2021-11-17 14:11:20 GMT 39.574997 -77.333420 34,000 245 413 0
2021-11-17 14:11:16 GMT 39.578571 -77.323608 34,000 245 413 0
2021-11-17 14:11:11 GMT 39.582413 -77.313057 34,000 245 413 0
2021-11-17 14:11:08 GMT 39.585323 -77.304993 34,000 245 413 0
2021-11-17 14:11:05 GMT 39.587791 -77.298279 34,000 245 413 0
2021-11-17 14:11:02 GMT 39.592117 -77.286430 34,000 245 413 0
2021-11-17 14:10:59 GMT 39.592117 -77.286430 34,000 245 413 0
2021-11-17 14:10:55 GMT 39.596100 -77.275444 34,000 245 413 0
2021-11-17 14:10:52 GMT 39.600498 -77.263367 34,000 245 413 0
2021-11-17 14:10:49 GMT 39.600498 -77.263367 34,000 245 414 0
2021-11-17 14:10:46 GMT 39.602463 -77.258011 34,000 245 414 0
2021-11-17 14:10:44 GMT 39.604408 -77.252625 34,000 245 414 0
2021-11-17 14:10:41 GMT 39.607574 -77.243896 34,000 245 414 0
2021-11-17 14:10:38 GMT 39.609146 -77.239616 34,000 245 414 0
2021-11-17 14:10:35 GMT 39.612415 -77.230652 34,000 245 414 0
2021-11-17 14:10:31 GMT 39.614929 -77.223755 34,000 245 414 0
2021-11-17 14:10:28 GMT 39.618095 -77.214966 34,000 245 414 0
2021-11-17 14:10:25 GMT 39.622009 -77.204208 34,000 245 414 0
2021-11-17 14:10:22 GMT 39.622009 -77.204208 34,000 245 414 0
2021-11-17 14:10:18 GMT 39.625534 -77.194595 34,000 245 414 0
2021-11-17 14:10:14 GMT 39.628876 -77.185402 34,000 245 414 0
2021-11-17 14:10:09 GMT 39.632675 -77.174835 34,000 245 414 0
2021-11-17 14:10:06 GMT 39.635559 -77.167015 34,000 245 414 0
2021-11-17 14:10:03 GMT 39.640045 -77.154655 34,000 245 414 0
2021-11-17 14:10:00 GMT 39.640045 -77.154655 34,000 245 414 0
2021-11-17 14:09:57 GMT 39.643524 -77.144981 34,000 245 414 0
2021-11-17 14:09:53 GMT 39.646362 -77.137161 34,000 245 414 0
2021-11-17 14:09:49 GMT 39.651764 -77.122353 34,000 245 414 0
2021-11-17 14:09:46 GMT 39.651764 -77.122353 34,000 245 414 0
2021-11-17 14:09:43 GMT 39.654778 -77.114075 34,000 245 414 0
2021-11-17 14:09:40 GMT 39.657154 -77.107544 34,000 245 414 0
2021-11-17 14:09:36 GMT 39.660645 -77.097900 34,000 245 414 0
2021-11-17 14:09:33 GMT 39.663391 -77.090286 34,000 245 414 0
2021-11-17 14:09:28 GMT 39.666092 -77.082825 34,000 245 414 0
2021-11-17 14:09:25 GMT 39.668743 -77.075439 34,000 245 413 0
2021-11-17 14:09:22 GMT 39.671585 -77.067566 34,000 245 413 0
2021-11-17 14:09:19 GMT 39.673634 -77.062012 34,000 245 413 0
2021-11-17 14:09:16 GMT 39.676193 -77.054810 34,000 245 413 0
2021-11-17 14:09:13 GMT 39.679031 -77.046936 34,000 245 413 0
2021-11-17 14:09:10 GMT 39.680756 -77.042236 34,000 245 413 0
2021-11-17 14:09:07 GMT 39.683807 -77.033684 34,000 245 413 0
2021-11-17 14:09:02 GMT 39.688019 -77.022034 34,000 245 413 0
2021-11-17 14:08:58 GMT 39.691181 -77.013306 34,000 245 413 0
2021-11-17 14:08:54 GMT 39.694107 -77.005203 34,000 245 413 0
2021-11-17 14:08:50 GMT 39.696674 -76.998047 34,000 245 413 0
2021-11-17 14:08:45 GMT 39.700562 -76.987289 34,000 245 413 0
2021-11-17 14:08:42 GMT 39.703903 -76.978096 34,000 245 413 0
2021-11-17 14:08:39 GMT 39.705566 -76.973328 34,000 245 413 0
2021-11-17 14:08:36 GMT 39.708733 -76.964600 34,000 245 413 0
2021-11-17 14:08:33 GMT 39.710678 -76.959229 34,000 245 413 0
2021-11-17 14:08:30 GMT 39.713436 -76.951599 34,000 245 413 0
2021-11-17 14:08:27 GMT 39.716492 -76.943047 34,000 245 413 0
2021-11-17 14:08:23 GMT 39.718689 -76.937019 34,000 245 413 0
2021-11-17 14:08:20 GMT 39.721893 -76.928001 34,000 245 413 0
2021-11-17 14:08:17 GMT 39.724411 -76.921074 34,000 245 413 0
2021-11-17 14:08:14 GMT 39.726791 -76.914566 34,000 245 413 0
2021-11-17 14:08:09 GMT 39.730591 -76.903999 34,000 245 413 0
2021-11-17 14:08:07 GMT 39.732605 -76.898384 34,000 245 413 0
2021-11-17 14:08:03 GMT 39.735359 -76.890747 34,000 245 413 0
2021-11-17 14:08:00 GMT 39.737686 -76.884216 34,000 245 413 0
2021-11-17 14:07:57 GMT 39.740852 -76.875488 34,000 245 413 0
2021-11-17 14:07:54 GMT 39.743362 -76.868530 34,000 245 413 0
2021-11-17 14:07:51 GMT 39.745277 -76.863159 34,000 245 413 0
2021-11-17 14:07:48 GMT 39.746841 -76.858856 34,000 245 413 0
2021-11-17 14:07:46 GMT 39.749233 -76.852112 34,000 246 412 0
2021-11-17 14:07:43 GMT 39.755447 -76.834793 34,000 246 413 0
2021-11-17 14:07:38 GMT 39.755447 -76.834793 34,000 246 413 0
2021-11-17 14:07:35 GMT 39.758545 -76.826294 34,000 246 413 0
2021-11-17 14:07:31 GMT 39.760685 -76.820190 34,000 246 413 0
2021-11-17 14:07:28 GMT 39.767296 -76.801758 34,000 246 412 0
2021-11-17 14:07:24 GMT 39.767296 -76.801758 34,000 246 412 0
2021-11-17 14:07:21 GMT 39.768951 -76.797058 34,000 246 412 0
2021-11-17 14:07:18 GMT 39.773758 -76.783508 34,000 246 413 0
2021-11-17 14:07:13 GMT 39.776001 -76.777237 34,000 246 413 64
2021-11-17 14:07:10 GMT 39.778236 -76.770935 34,000 246 413 0
2021-11-17 14:07:07 GMT 39.780716 -76.763924 34,000 246 412 0
2021-11-17 14:07:04 GMT 39.783188 -76.756935 34,000 246 412 0
2021-11-17 14:07:01 GMT 39.784836 -76.752220 34,000 246 412 0
2021-11-17 14:06:58 GMT 39.787407 -76.745056 34,000 246 412 0
2021-11-17 14:06:55 GMT 39.789734 -76.738525 34,000 246 412 0
2021-11-17 14:06:53 GMT 39.791454 -76.733582 34,000 246 412 0
2021-11-17 14:06:49 GMT 39.795227 -76.722961 34,000 246 412 0
2021-11-17 14:06:46 GMT 39.796829 -76.718483 34,000 246 412 0
2021-11-17 14:06:44 GMT 39.799301 -76.711502 34,000 246 412 0
2021-11-17 14:06:40 GMT 39.802460 -76.702721 34,000 246 413 0
2021-11-17 14:06:36 GMT 39.805389 -76.694420 34,000 246 412 0
2021-11-17 14:06:33 GMT 39.809372 -76.683434 34,000 246 412 0
2021-11-17 14:06:30 GMT 39.809372 -76.683434 34,000 246 412 0
2021-11-17 14:06:27 GMT 39.815002 -76.667732 34,000 246 412 0
2021-11-17 14:06:24 GMT 39.815002 -76.667732 34,000 246 412 0
2021-11-17 14:06:21 GMT 39.817387 -76.661011 34,000 246 412 0
2021-11-17 14:06:18 GMT 39.819717 -76.654480 34,000 246 412 0
2021-11-17 14:06:15 GMT 39.822189 -76.647552 34,000 246 412 0
2021-11-17 14:06:12 GMT 39.824322 -76.641724 34,000 246 412 0
2021-11-17 14:06:09 GMT 39.827362 -76.633163 34,000 246 412 0
2021-11-17 14:06:06 GMT 39.828560 -76.629822 34,000 246 412 0
2021-11-17 14:06:03 GMT 39.831676 -76.621033 34,000 246 412 0
2021-11-17 14:06:00 GMT 39.833267 -76.616562 34,000 246 412 0
2021-11-17 14:05:57 GMT 39.836658 -76.607178 34,000 246 412 0
2021-11-17 14:05:53 GMT 39.840897 -76.595276 34,000 246 412 0
2021-11-17 14:05:51 GMT 39.840897 -76.595276 34,000 246 412 0
2021-11-17 14:05:48 GMT 39.843548 -76.587891 34,000 246 411 0
2021-11-17 14:05:44 GMT 39.847046 -76.577988 34,000 246 411 0
2021-11-17 14:05:41 GMT 39.850021 -76.569748 34,000 246 411 0
2021-11-17 14:05:38 GMT 39.852173 -76.563660 34,000 246 411 0
2021-11-17 14:05:35 GMT 39.853455 -76.560081 34,000 246 411 0
2021-11-17 14:05:32 GMT 39.856567 -76.551361 34,000 246 410 0
2021-11-17 14:05:29 GMT 39.859177 -76.543961 34,000 246 410 0
2021-11-17 14:05:26 GMT 39.863800 -76.530998 34,000 246 410 0
2021-11-17 14:05:23 GMT 39.863800 -76.530998 34,000 246 410 0
2021-11-17 14:05:20 GMT 39.866776 -76.522697 34,000 246 410 0
2021-11-17 14:05:16 GMT 39.869293 -76.515594 34,000 246 410 0
2021-11-17 14:05:12 GMT 39.871853 -76.508423 34,000 246 410 0
2021-11-17 14:05:09 GMT 39.875198 -76.499001 34,000 246 410 0
2021-11-17 14:05:05 GMT 39.877808 -76.491653 34,000 246 410 0
2021-11-17 14:05:02 GMT 39.880280 -76.484726 34,000 246 410 64
2021-11-17 14:04:59 GMT 39.882698 -76.477966 34,000 246 410 0
2021-11-17 14:04:56 GMT 39.884354 -76.473320 34,000 246 410 0
2021-11-17 14:04:53 GMT 39.889572 -76.458511 34,000 246 410 0
2021-11-17 14:04:50 GMT 39.889572 -76.458511 34,000 246 410 -64
2021-11-17 14:04:48 GMT 39.890854 -76.454933 34,000 246 410 -64
2021-11-17 14:04:45 GMT 39.896210 -76.439766 34,000 246 409 0
2021-11-17 14:04:41 GMT 39.896210 -76.439766 34,000 246 409 0
2021-11-17 14:04:39 GMT 39.898247 -76.433899 34,000 246 409 64
2021-11-17 14:04:37 GMT 39.899830 -76.429443 34,000 246 409 64
2021-11-17 14:04:34 GMT 39.902065 -76.422974 34,000 246 409 64
2021-11-17 14:04:31 GMT 39.904671 -76.415588 34,000 246 409 0
2021-11-17 14:04:29 GMT 39.906464 -76.410393 34,000 246 409 0
2021-11-17 14:04:26 GMT 39.908386 -76.404839 34,000 246 409 0
2021-11-17 14:04:22 GMT 39.911793 -76.394958 34,000 246 409 0
2021-11-17 14:04:19 GMT 39.914822 -76.386230 34,000 246 409 0
2021-11-17 14:04:16 GMT 39.916397 -76.381729 34,000 246 409 0
2021-11-17 14:04:13 GMT 39.918171 -76.376587 34,000 246 409 0
2021-11-17 14:04:09 GMT 39.922256 -76.364716 34,000 246 408 0
2021-11-17 14:04:06 GMT 39.924820 -76.357361 34,000 246 408 0
2021-11-17 14:04:03 GMT 39.926319 -76.353111 34,000 246 408 0
2021-11-17 14:04:00 GMT 39.928940 -76.345520 34,000 246 408 64
2021-11-17 14:03:56 GMT 39.932510 -76.335190 34,000 246 408 0
2021-11-17 14:03:53 GMT 39.933998 -76.330948 34,000 246 408 0
2021-11-17 14:03:48 GMT 39.937817 -76.320023 34,000 246 408 0
2021-11-17 14:03:46 GMT 39.939514 -76.315125 34,000 246 408 0
2021-11-17 14:03:43 GMT 39.941868 -76.308411 34,000 246 408 0
2021-11-17 14:03:40 GMT 39.944275 -76.301453 34,000 246 408 0
2021-11-17 14:03:37 GMT 39.946941 -76.293869 34,000 246 408 64
2021-11-17 14:03:34 GMT 39.949036 -76.287811 34,000 246 408 64
2021-11-17 14:03:31 GMT 39.951363 -76.281136 34,000 246 408 0
2021-11-17 14:03:27 GMT 39.953979 -76.273560 34,000 246 408 0
2021-11-17 14:03:24 GMT 39.957275 -76.264153 34,000 246 407 -64
2021-11-17 14:03:21 GMT 39.958439 -76.260788 34,000 246 407 -64
2021-11-17 14:03:18 GMT 39.962036 -76.250549 34,000 246 407 0
2021-11-17 14:03:15 GMT 39.963409 -76.246521 34,000 246 407 64
2021-11-17 14:03:12 GMT 39.965889 -76.239372 34,000 246 407 64
2021-11-17 14:03:08 GMT 39.969566 -76.228889 34,000 246 407 0
2021-11-17 14:03:05 GMT 39.971191 -76.224243 34,000 246 407 0
2021-11-17 14:03:03 GMT 39.973480 -76.217773 34,000 246 407 0
2021-11-17 14:03:00 GMT 39.977692 -76.205750 34,000 246 407 0
2021-11-17 14:02:57 GMT 39.977692 -76.205750 34,000 246 407 0
2021-11-17 14:02:54 GMT 39.979706 -76.199951 34,000 246 407 0
2021-11-17 14:02:52 GMT 39.981033 -76.196167 34,000 246 407 0
2021-11-17 14:02:49 GMT 39.984650 -76.185669 34,000 246 407 0
2021-11-17 14:02:46 GMT 39.985672 -76.182755 34,000 246 407 0
2021-11-17 14:02:43 GMT 39.987991 -76.176086 34,000 246 407 0
2021-11-17 14:02:41 GMT 39.989914 -76.170532 34,000 246 405 0
2021-11-17 14:02:37 GMT 39.993713 -76.159607 34,000 246 405 0
2021-11-17 14:02:33 GMT 39.997124 -76.149796 34,000 246 405 0
2021-11-17 14:02:30 GMT 39.998287 -76.146492 34,000 259 386 -64
2021-11-17 14:02:26 GMT 40.002136 -76.135315 34,000 246 405 0
2021-11-17 14:02:23 GMT 40.004379 -76.128906 34,000 246 405 0
2021-11-17 14:02:20 GMT 40.005936 -76.124451 34,000 246 405 0
2021-11-17 14:02:15 GMT 40.010765 -76.110413 34,000 246 405 0
2021-11-17 14:02:12 GMT 40.012619 -76.105042 34,000 246 405 0
2021-11-17 14:02:10 GMT 40.013790 -76.101730 34,000 246 405 0
2021-11-17 14:02:07 GMT 40.016628 -76.093491 34,000 246 405 0
2021-11-17 14:02:04 GMT 40.018799 -76.087280 34,000 246 405 0
2021-11-17 14:02:01 GMT 40.020493 -76.082397 34,000 246 405 0
2021-11-17 14:01:58 GMT 40.023567 -76.073456 34,000 246 405 0
2021-11-17 14:01:55 GMT 40.027908 -76.060791 34,000 246 405 0
2021-11-17 14:01:52 GMT 40.029385 -76.056541 34,000 246 405 0
2021-11-17 14:01:50 GMT 40.029385 -76.056541 34,000 246 405 0
2021-11-17 14:01:46 GMT 40.032040 -76.048798 34,000 246 405 0
2021-11-17 14:01:43 GMT 40.034878 -76.040558 34,000 246 405 0
2021-11-17 14:01:40 GMT 40.036648 -76.035439 34,000 246 405 0
2021-11-17 14:01:38 GMT 40.038788 -76.029198 34,000 246 405 0
2021-11-17 14:01:35 GMT 40.041164 -76.022331 34,000 246 405 0
2021-11-17 14:01:33 GMT 40.042465 -76.018524 34,000 246 405 0
2021-11-17 14:01:30 GMT 40.044979 -76.011162 34,000 259 386 -64
2021-11-17 14:01:27 GMT 40.047260 -76.004539 34,000 246 404 0
2021-11-17 14:01:24 GMT 40.049774 -75.997177 34,000 246 404 64
2021-11-17 14:01:21 GMT 40.054367 -75.983826 34,000 246 404 64
2021-11-17 14:01:18 GMT 40.054367 -75.983826 34,000 246 404 64
2021-11-17 14:01:15 GMT 40.056198 -75.978508 34,000 246 403 -64
2021-11-17 14:01:12 GMT 40.058487 -75.971863 34,000 246 404 0
2021-11-17 14:01:08 GMT 40.060913 -75.964722 34,000 251 392 64
2021-11-17 14:01:05 GMT 40.064301 -75.954979 34,000 246 403 0
2021-11-17 14:01:02 GMT 40.068832 -75.941895 34,000 246 403 0
2021-11-17 14:00:59 GMT 40.068832 -75.941895 34,025 246 401 0
2021-11-17 14:00:56 GMT 40.074646 -75.924744 34,025 249 395 64
2021-11-17 14:00:51 GMT 40.074646 -75.924744 34,000 256 388 -64
2021-11-17 14:00:48 GMT 40.076450 -75.918961 34,000 251 392 64
2021-11-17 14:00:45 GMT 40.078823 -75.910538 34,000 252 391 0
2021-11-17 14:00:41 GMT 40.080734 -75.903137 34,000 260 384 -64
2021-11-17 14:00:38 GMT 40.082268 -75.896614 34,000 256 388 -64
2021-11-17 14:00:35 GMT 40.083805 -75.889626 34,000 257 388 -64
2021-11-17 14:00:31 GMT 40.085541 -75.880554 34,000 263 383 64
2021-11-17 14:00:27 GMT 40.087051 -75.871216 34,000 261 385 0
2021-11-17 14:00:24 GMT 40.088150 -75.862732 34,000 263 383 64
2021-11-17 14:00:21 GMT 40.088783 -75.856789 34,000 264 383 0
2021-11-17 14:00:18 GMT 40.089294 -75.851257 34,000 264 383 0
2021-11-17 14:00:16 GMT 40.089706 -75.846680 34,000 264 383 0
2021-11-17 14:00:13 GMT 40.090321 -75.839371 34,000 264 382 320
2021-11-17 14:00:09 GMT 40.091206 -75.829506 33,975 264 382 576
2021-11-17 14:00:06 GMT 40.091812 -75.822632 33,975 264 382 320
2021-11-17 14:00:03 GMT 40.092464 -75.815277 33,925 264 381 1536
2021-11-17 14:00:00 GMT 40.092976 -75.809784 33,925 264 381 1536
2021-11-17 13:59:57 GMT 40.093815 -75.800423 33,750 264 381 1600
2021-11-17 13:59:54 GMT 40.094376 -75.793823 33,750 264 381 1728
2021-11-17 13:59:50 GMT 40.095814 -75.777824 33,500 264 382 1664
2021-11-17 13:59:46 GMT 40.095814 -75.777824 33,550 264 382 1664
2021-11-17 13:59:42 GMT 40.096607 -75.768898 33,300 264 382 1728
2021-11-17 13:59:39 GMT 40.097210 -75.761780 33,350 264 383 1792
2021-11-17 13:59:36 GMT 40.097816 -75.755165 33,250 264 383 1792
2021-11-17 13:59:33 GMT 40.098404 -75.748291 33,100 264 383 1792
2021-11-17 13:59:30 GMT 40.098907 -75.742798 32,875 264 384 1792
2021-11-17 13:59:27 GMT 40.099823 -75.731995 32,950 264 384 1792
2021-11-17 13:59:24 GMT 40.100327 -75.726196 32,875 264 384 1792
2021-11-17 13:59:21 GMT 40.100830 -75.720459 32,725 264 385 1856
2021-11-17 13:59:18 GMT 40.101540 -75.712402 32,575 264 385 1856
2021-11-17 13:59:15 GMT 40.102100 -75.706161 32,550 264 385 1856
2021-11-17 13:59:12 GMT 40.102661 -75.699768 32,375 264 386 1856
2021-11-17 13:59:08 GMT 40.103439 -75.690491 32,350 264 386 1920
2021-11-17 13:59:05 GMT 40.104218 -75.681946 32,250 264 386 1984
2021-11-17 13:59:02 GMT 40.104767 -75.675232 32,200 264 387 1984
2021-11-17 13:58:59 GMT 40.105919 -75.662468 32,075 264 387 1984
2021-11-17 13:58:56 GMT 40.105919 -75.662468 31,925 264 389 2112
2021-11-17 13:58:53 GMT 40.106552 -75.654846 31,850 264 388 2048
2021-11-17 13:58:50 GMT 40.107311 -75.646484 29,825 264 406 2624
2021-11-17 13:58:47 GMT 40.107697 -75.641785 31,700 264 391 2240
2021-11-17 13:58:43 GMT 40.108524 -75.632507 31,525 264 390 2176
2021-11-17 13:58:40 GMT 40.109131 -75.625267 31,400 264 390 2176
2021-11-17 13:58:37 GMT 40.109921 -75.616150 31,300 264 391 2240
2021-11-17 13:58:34 GMT 40.110306 -75.611694 31,225 264 392 2304
2021-11-17 13:58:32 GMT 40.110806 -75.606033 31,100 264 393 2304
2021-11-17 13:58:29 GMT 40.111408 -75.599236 31,025 264 393 2304
2021-11-17 13:58:26 GMT 40.112137 -75.590942 30,850 264 394 2240
2021-11-17 13:58:22 GMT 40.112869 -75.582703 30,800 264 396 2368
2021-11-17 13:58:19 GMT 40.113506 -75.575134 30,575 264 397 2432
2021-11-17 13:58:16 GMT 40.114063 -75.568710 30,450 264 397 2432
2021-11-17 13:58:13 GMT 40.114716 -75.561340 30,175 264 398 2432
2021-11-17 13:58:11 GMT 40.114994 -75.558037 30,125 264 400 2496
2021-11-17 13:58:08 GMT 40.115845 -75.548523 30,175 264 399 2496
2021-11-17 13:58:04 GMT 40.116623 -75.539185 29,900 264 401 2560
2021-11-17 13:58:01 GMT 40.117043 -75.534378 29,875 264 401 2624
2021-11-17 13:57:58 GMT 40.118271 -75.520447 29,700 264 403 2624
2021-11-17 13:57:55 GMT 40.118271 -75.520447 29,550 264 404 2560
2021-11-17 13:57:52 GMT 40.119003 -75.511963 29,450 264 406 2624
2021-11-17 13:57:50 GMT 40.119324 -75.508347 29,450 264 406 2624
2021-11-17 13:57:47 GMT 40.120163 -75.498856 29,275 264 406 2688
2021-11-17 13:57:44 GMT 40.120789 -75.491577 29,150 264 407 2688
2021-11-17 13:57:41 GMT 40.121613 -75.482483 28,725 264 410 2496
2021-11-17 13:57:38 GMT 40.122070 -75.476868 28,725 264 410 1984
2021-11-17 13:57:35 GMT 40.122677 -75.470016 28,725 264 410 1856
2021-11-17 13:57:31 GMT 40.123535 -75.460144 28,625 264 410 1792
2021-11-17 13:57:28 GMT 40.124817 -75.445679 28,525 264 410 1920
2021-11-17 13:57:25 GMT 40.124817 -75.445679 28,425 264 410 2048
2021-11-17 13:57:22 GMT 40.125504 -75.438049 28,300 264 410 1984
2021-11-17 13:57:18 GMT 40.126259 -75.428947 28,200 264 410 1600
2021-11-17 13:57:15 GMT 40.127106 -75.419067 28,175 264 410 1152
2021-11-17 13:57:11 GMT 40.127792 -75.411438 28,050 264 404 0
2021-11-17 13:57:09 GMT 40.128204 -75.406311 28,100 264 407 576
2021-11-17 13:57:05 GMT 40.129333 -75.393616 28,050 264 404 0
2021-11-17 13:57:02 GMT 40.129715 -75.388977 28,025 264 405 576
2021-11-17 13:56:59 GMT 40.130310 -75.381958 28,000 264 404 64
2021-11-17 13:56:55 GMT 40.131241 -75.371017 28,000 264 404 0
2021-11-17 13:56:52 GMT 40.131866 -75.363525 28,000 264 404 0
2021-11-17 13:56:49 GMT 40.132507 -75.356018 28,000 264 404 0
2021-11-17 13:56:46 GMT 40.133057 -75.349976 28,000 264 404 0
2021-11-17 13:56:42 GMT 40.133743 -75.341492 28,000 264 404 0
2021-11-17 13:56:38 GMT 40.134827 -75.328880 28,000 264 404 0
2021-11-17 13:56:34 GMT 40.135345 -75.322571 28,000 264 404 0
2021-11-17 13:56:31 GMT 40.136032 -75.314392 28,000 264 404 0
2021-11-17 13:56:28 GMT 40.136921 -75.304161 28,000 264 404 0
2021-11-17 13:56:24 GMT 40.138321 -75.287476 28,000 264 404 0
2021-11-17 13:56:21 GMT 40.138321 -75.287476 28,000 264 404 0
2021-11-17 13:56:17 GMT 40.139156 -75.277756 28,000 264 404 0
2021-11-17 13:56:14 GMT 40.139511 -75.273193 28,000 264 404 0
2021-11-17 13:56:11 GMT 40.140179 -75.265396 28,000 264 404 0
2021-11-17 13:56:08 GMT 40.140793 -75.258118 28,000 264 404 0
2021-11-17 13:56:05 GMT 40.141388 -75.251099 28,000 264 404 0
2021-11-17 13:56:02 GMT 40.141994 -75.244049 28,000 264 405 0
2021-11-17 13:55:59 GMT 40.142601 -75.236557 28,000 264 405 0
2021-11-17 13:55:56 GMT 40.143436 -75.226570 28,000 264 405 -64
2021-11-17 13:55:53 GMT 40.143860 -75.221741 28,000 264 405 -64
2021-11-17 13:55:50 GMT 40.144455 -75.214478 28,000 264 405 -64
2021-11-17 13:55:47 GMT 40.145065 -75.207161 28,000 264 405 0
2021-11-17 13:55:45 GMT 40.145737 -75.199402 28,000 264 403 1216
2021-11-17 13:55:42 GMT 40.146240 -75.193298 28,000 264 405 0
2021-11-17 13:55:39 GMT 40.146652 -75.188477 28,000 264 405 0
2021-11-17 13:55:36 GMT 40.147293 -75.180420 28,000 264 405 0
2021-11-17 13:55:34 GMT 40.147659 -75.176086 28,000 264 403 1216
2021-11-17 13:55:31 GMT 40.148464 -75.166397 27,900 264 404 576
2021-11-17 13:55:28 GMT 40.148758 -75.162476 27,925 264 403 832
2021-11-17 13:55:25 GMT 40.149677 -75.151855 27,800 264 402 1344
2021-11-17 13:55:21 GMT 40.150452 -75.142212 27,775 264 401 1664
2021-11-17 13:55:18 GMT 40.150772 -75.138306 27,750 264 401 1664
2021-11-17 13:55:15 GMT 40.151550 -75.128967 27,650 264 401 1856
2021-11-17 13:55:12 GMT 40.152191 -75.120766 27,350 264 401 1856
2021-11-17 13:55:07 GMT 40.153839 -75.101318 27,125 264 400 1792
2021-11-17 13:55:04 GMT 40.153839 -75.101318 27,275 264 400 1728
2021-11-17 13:55:01 GMT 40.154160 -75.097229 27,175 264 399 1792
2021-11-17 13:54:58 GMT 40.154892 -75.088562 27,125 264 399 1792
2021-11-17 13:54:55 GMT 40.155396 -75.082092 26,975 264 399 1792
2021-11-17 13:54:52 GMT 40.156677 -75.066772 26,900 264 399 1792
2021-11-17 13:54:49 GMT 40.157169 -75.060776 26,825 264 398 1728
2021-11-17 13:54:46 GMT 40.157169 -75.060776 26,725 264 398 1728
2021-11-17 13:54:43 GMT 40.157684 -75.054848 26,725 264 398 1792
2021-11-17 13:54:40 GMT 40.158474 -75.045052 26,650 264 397 2048
2021-11-17 13:54:37 GMT 40.158939 -75.039116 26,375 264 397 1984
2021-11-17 13:54:34 GMT 40.159683 -75.030502 26,300 264 397 1856
2021-11-17 13:54:31 GMT 40.160202 -75.023865 26,300 264 396 1792
2021-11-17 13:54:29 GMT 40.160568 -75.019348 26,200 264 395 1728
2021-11-17 13:54:26 GMT 40.161034 -75.013840 26,175 264 395 1728
2021-11-17 13:54:23 GMT 40.161667 -75.006287 26,075 264 395 1792
2021-11-17 13:54:21 GMT 40.162151 -75.000107 25,975 264 395 2048
2021-11-17 13:54:17 GMT 40.163086 -74.988708 25,825 264 394 2048
2021-11-17 13:54:14 GMT 40.163410 -74.984932 25,675 265 394 1984
2021-11-17 13:54:11 GMT 40.164246 -74.974327 25,600 265 393 1792
2021-11-17 13:54:08 GMT 40.164642 -74.969360 25,575 265 393 1728
2021-11-17 13:54:05 GMT 40.165272 -74.961777 25,475 264 392 1728
2021-11-17 13:54:02 GMT 40.166389 -74.947922 25,375 264 391 1856
2021-11-17 13:53:59 GMT 40.167252 -74.937622 25,300 264 390 1856
2021-11-17 13:53:55 GMT 40.167252 -74.937622 25,175 264 390 1856
2021-11-17 13:53:52 GMT 40.167740 -74.931503 25,125 264 390 1920
2021-11-17 13:53:49 GMT 40.168167 -74.925903 25,000 264 389 1984
2021-11-17 13:53:46 GMT 40.168900 -74.917297 24,875 264 389 2048
2021-11-17 13:53:42 GMT 40.169556 -74.908905 24,575 264 388 1920
2021-11-17 13:53:39 GMT 40.170113 -74.902351 24,650 264 388 1984
2021-11-17 13:53:37 GMT 40.171097 -74.890015 24,550 264 387 1920
2021-11-17 13:53:34 GMT 40.171097 -74.890015 24,300 264 386 1984
2021-11-17 13:53:31 GMT 40.171646 -74.883308 23,350 264 386 1984
2021-11-17 13:53:28 GMT 40.172115 -74.877510 24,175 264 384 1984
2021-11-17 13:53:26 GMT 40.172562 -74.871704 24,175 264 384 1984
2021-11-17 13:53:23 GMT 40.173111 -74.864990 24,125 264 384 1984
2021-11-17 13:53:20 GMT 40.173790 -74.856720 24,025 264 384 1984
2021-11-17 13:53:17 GMT 40.174118 -74.852539 23,950 265 383 2048
2021-11-17 13:53:15 GMT 40.174759 -74.844727 23,825 265 383 2176
2021-11-17 13:53:12 GMT 40.175034 -74.841309 23,775 264 382 2176
2021-11-17 13:53:08 GMT 40.176071 -74.828880 23,600 264 382 2112
2021-11-17 13:53:06 GMT 40.176498 -74.823425 23,500 265 381 2048
2021-11-17 13:53:03 GMT 40.177563 -74.810150 23,425 265 375 2240
2021-11-17 13:53:00 GMT 40.177563 -74.810150 23,275 265 379 2240
2021-11-17 13:52:57 GMT 40.177917 -74.805603 23,225 265 379 2368
2021-11-17 13:52:55 GMT 40.178307 -74.800850 23,075 265 379 2496
2021-11-17 13:52:52 GMT 40.178833 -74.794006 23,025 265 379 2496
2021-11-17 13:52:49 GMT 40.179565 -74.784668 22,850 265 378 2432
2021-11-17 13:52:46 GMT 40.180115 -74.777649 22,725 265 377 2304
2021-11-17 13:52:43 GMT 40.180588 -74.771950 22,625 265 377 2240
2021-11-17 13:52:40 GMT 40.181625 -74.758606 22,500 265 376 2240
2021-11-17 13:52:37 GMT 40.182037 -74.752930 22,325 265 375 2240
2021-11-17 13:52:32 GMT 40.182404 -74.747986 22,225 265 374 2240
2021-11-17 13:52:29 GMT 40.182961 -74.740738 22,100 265 373 2240
2021-11-17 13:52:26 GMT 40.183365 -74.735779 22,050 265 373 2240
2021-11-17 13:52:23 GMT 40.184647 -74.719238 21,825 265 372 2240
2021-11-17 13:52:19 GMT 40.184647 -74.719238 21,775 265 371 2368
2021-11-17 13:52:16 GMT 40.185287 -74.711151 21,625 265 371 2368
2021-11-17 13:52:13 GMT 40.185745 -74.705383 21,525 265 370 2432
2021-11-17 13:52:10 GMT 40.186172 -74.699356 21,275 265 369 2432
2021-11-17 13:52:07 GMT 40.186752 -74.692261 21,125 265 369 2432
2021-11-17 13:52:04 GMT 40.187336 -74.684494 21,125 265 368 2368
2021-11-17 13:52:00 GMT 40.187897 -74.677368 20,925 265 367 2368
2021-11-17 13:51:57 GMT 40.188400 -74.670959 20,825 265 366 2432
2021-11-17 13:51:54 GMT 40.189106 -74.662590 20,775 265 366 2560
2021-11-17 13:51:50 GMT 40.189941 -74.651787 20,525 265 365 2560
2021-11-17 13:51:47 GMT 40.190315 -74.647415 20,400 265 365 2496
2021-11-17 13:51:44 GMT 40.190689 -74.642578 20,350 265 364 2496
2021-11-17 13:51:41 GMT 40.191376 -74.634033 19,775 264 362 2496
2021-11-17 13:51:37 GMT 40.192875 -74.615898 19,975 264 362 2496
2021-11-17 13:51:33 GMT 40.192875 -74.615898 19,825 264 363 2560
2021-11-17 13:51:30 GMT 40.193207 -74.611572 19,650 264 362 2560
2021-11-17 13:51:27 GMT 40.193806 -74.604156 19,450 264 360 2624
2021-11-17 13:51:24 GMT 40.194351 -74.597900 19,475 264 361 2688
2021-11-17 13:51:21 GMT 40.194901 -74.591187 19,250 264 360 2624
2021-11-17 13:51:18 GMT 40.195389 -74.585121 19,200 264 360 2624
2021-11-17 13:51:15 GMT 40.195999 -74.578186 18,850 264 359 2624
2021-11-17 13:51:11 GMT 40.196869 -74.567627 18,850 264 357 2752
2021-11-17 13:51:08 GMT 40.197250 -74.563332 18,675 264 357 2816
2021-11-17 13:51:05 GMT 40.197857 -74.555595 18,600 265 356 2880
2021-11-17 13:51:02 GMT 40.198231 -74.551102 18,300 265 356 2944
2021-11-17 13:50:58 GMT 40.199066 -74.540611 18,250 263 356 2944
2021-11-17 13:50:55 GMT 40.199478 -74.536377 18,125 262 357 2880
2021-11-17 13:50:52 GMT 40.200119 -74.530151 18,025 261 357 2880
2021-11-17 13:50:48 GMT 40.201767 -74.518326 17,750 258 357 3072
2021-11-17 13:50:45 GMT 40.202499 -74.513855 17,625 256 357 3200
2021-11-17 13:50:42 GMT 40.203918 -74.506531 17,525 255 358 3200
2021-11-17 13:50:38 GMT 40.205246 -74.500061 17,225 252 359 2944
2021-11-17 13:50:35 GMT 40.206841 -74.493484 17,100 249 359 2176
2021-11-17 13:50:32 GMT 40.207947 -74.489136 17,050 250 359 2368
2021-11-17 13:50:30 GMT 40.209732 -74.482849 16,900 247 358 1792
2021-11-17 13:50:27 GMT 40.211563 -74.476990 16,850 246 358 1344
2021-11-17 13:50:24 GMT 40.213669 -74.470886 16,800 244 357 1152
2021-11-17 13:50:22 GMT 40.214989 -74.467140 16,775 243 358 1152
2021-11-17 13:50:19 GMT 40.217285 -74.461365 16,675 241 358 1024
2021-11-17 13:50:16 GMT 40.219254 -74.456665 16,625 240 357 0
2021-11-17 13:50:13 GMT 40.222019 -74.450478 16,625 240 357 384
2021-11-17 13:50:11 GMT 40.223831 -74.446350 16,625 240 357 128
2021-11-17 13:50:09 GMT 40.225555 -74.442421 16,600 241 358 0
2021-11-17 13:50:06 GMT 40.229965 -74.432495 16,625 241 358 0
2021-11-17 13:50:03 GMT 40.229965 -74.432495 16,600 241 358 0
2021-11-17 13:50:00 GMT 40.232212 -74.427444 16,600 241 358 0
2021-11-17 13:49:58 GMT 40.234177 -74.422913 16,600 241 359 0
2021-11-17 13:49:53 GMT 40.238892 -74.412170 15,000 241 356 2624
2021-11-17 13:49:51 GMT 40.240631 -74.408203 16,600 241 360 0
2021-11-17 13:49:48 GMT 40.242828 -74.403343 16,600 241 360 0
2021-11-17 13:49:45 GMT 40.244968 -74.398415 16,600 241 361 0
2021-11-17 13:49:42 GMT 40.247391 -74.392921 16,600 241 361 0
2021-11-17 13:49:40 GMT 40.249191 -74.388733 16,600 241 361 0
2021-11-17 13:49:38 GMT 40.254417 -74.376816 16,625 241 362 0
2021-11-17 13:49:34 GMT 40.254417 -74.376816 16,625 241 362 0
2021-11-17 13:49:31 GMT 40.258373 -74.367889 16,625 241 362 0
2021-11-17 13:49:29 GMT 40.258373 -74.367889 16,625 241 362 0
2021-11-17 13:49:25 GMT 40.261772 -74.360085 16,625 241 364 0
2021-11-17 13:49:22 GMT 40.264938 -74.352844 16,625 241 364 -64
2021-11-17 13:49:19 GMT 40.266449 -74.349426 16,625 241 364 -64
2021-11-17 13:49:17 GMT 40.269424 -74.342773 16,625 241 364 -64
2021-11-17 13:49:12 GMT 40.272575 -74.335495 16,625 241 364 -64
2021-11-17 13:49:09 GMT 40.275040 -74.329941 16,625 241 365 0
2021-11-17 13:49:06 GMT 40.277573 -74.324219 16,625 241 365 0
2021-11-17 13:49:03 GMT 40.279724 -74.319214 16,600 241 365 384
2021-11-17 13:49:00 GMT 40.283096 -74.311584 16,600 241 365 512
2021-11-17 13:48:57 GMT 40.285702 -74.305595 16,500 241 362 1344
2021-11-17 13:48:54 GMT 40.288307 -74.299660 16,500 241 364 1152
2021-11-17 13:48:51 GMT 40.290802 -74.293945 16,375 241 361 1536
2021-11-17 13:48:48 GMT 40.292545 -74.289986 16,400 241 361 1536
2021-11-17 13:48:44 GMT 40.296223 -74.281624 16,175 241 359 2816
2021-11-17 13:48:41 GMT 40.298447 -74.276489 16,125 241 359 2624
2021-11-17 13:48:38 GMT 40.301193 -74.270264 16,025 241 359 2880
2021-11-17 13:48:35 GMT 40.303757 -74.264465 15,725 241 358 3008
2021-11-17 13:48:32 GMT 40.306744 -74.257652 15,600 241 358 2880
2021-11-17 13:48:29 GMT 40.308697 -74.253159 15,475 241 356 2752
2021-11-17 13:48:24 GMT 40.313541 -74.242111 15,250 241 354 2560
2021-11-17 13:48:21 GMT 40.317535 -74.232971 15,075 241 353 2752
2021-11-17 13:48:18 GMT 40.317535 -74.232971 15,025 241 353 2752
2021-11-17 13:48:14 GMT 40.321701 -74.223511 14,725 241 351 2880
2021-11-17 13:48:11 GMT 40.324860 -74.216309 14,625 241 351 3200
2021-11-17 13:48:09 GMT 40.324860 -74.216309 14,525 241 351 3264
2021-11-17 13:48:06 GMT 40.327133 -74.211151 14,525 241 351 3264
2021-11-17 13:48:03 GMT 40.330673 -74.203003 14,225 241 350 2944
2021-11-17 13:48:00 GMT 40.333092 -74.197540 14,075 241 349 3008
2021-11-17 13:47:57 GMT 40.334335 -74.194763 14,050 241 349 3072
2021-11-17 13:47:53 GMT 40.337513 -74.187431 13,750 241 344 2560
2021-11-17 13:47:50 GMT 40.340679 -74.180313 13,600 241 346 2496
2021-11-17 13:47:47 GMT 40.342682 -74.175758 13,525 241 345 2496
2021-11-17 13:47:45 GMT 40.343857 -74.173035 13,375 241 343 2816
2021-11-17 13:47:42 GMT 40.346832 -74.166321 13,300 241 342 2880
2021-11-17 13:47:39 GMT 40.352188 -74.154053 13,050 241 342 2880
2021-11-17 13:47:36 GMT 40.352188 -74.154053 12,975 241 341 2880
2021-11-17 13:47:32 GMT 40.355019 -74.147598 12,800 241 341 2688
2021-11-17 13:47:28 GMT 40.357819 -74.141113 12,600 241 338 2240
2021-11-17 13:47:25 GMT 40.360245 -74.135559 12,475 241 337 1920
2021-11-17 13:47:22 GMT 40.362698 -74.129875 12,450 241 335 1856
2021-11-17 13:47:19 GMT 40.364868 -74.124756 12,325 242 332 2496
2021-11-17 13:47:16 GMT 40.366657 -74.120514 12,225 241 332 2816
2021-11-17 13:47:13 GMT 40.369675 -74.113464 12,025 240 332 3072
2021-11-17 13:47:09 GMT 40.372238 -74.107788 11,925 237 333 2880
2021-11-17 13:47:06 GMT 40.375168 -74.102051 11,725 234 332 2688
2021-11-17 13:47:01 GMT 40.379379 -74.094604 11,425 230 333 3200
2021-11-17 13:46:58 GMT 40.382721 -74.089355 11,300 228 334 3200
2021-11-17 13:46:55 GMT 40.386627 -74.083618 11,125 224 335 3008
2021-11-17 13:46:51 GMT 40.389450 -74.079895 10,800 217 335 2176
2021-11-17 13:46:48 GMT 40.392792 -74.075928 10,800 217 335 2176
2021-11-17 13:46:45 GMT 40.399101 -74.069328 10,725 216 335 2048
2021-11-17 13:46:43 GMT 40.399101 -74.069328 10,625 213 332 1280
2021-11-17 13:46:40 GMT 40.404007 -74.065063 10,600 213 331 1088
2021-11-17 13:46:37 GMT 40.407486 -74.062134 10,525 213 322 960
2021-11-17 13:46:34 GMT 40.415302 -74.055779 10,450 212 322 960
2021-11-17 13:46:31 GMT 40.415302 -74.055779 10,450 212 319 896
2021-11-17 13:46:27 GMT 40.419846 -74.052063 10,375 213 312 1024
2021-11-17 13:46:24 GMT 40.423450 -74.049164 10,350 213 308 1088
2021-11-17 13:46:20 GMT 40.431793 -74.042297 10,250 213 303 1088
2021-11-17 13:46:17 GMT 40.431793 -74.042297 10,200 213 298 1024
2021-11-17 13:46:14 GMT 40.435600 -74.039238 10,175 213 295 960
2021-11-17 13:46:11 GMT 40.438248 -74.037048 10,100 213 290 960
2021-11-17 13:46:08 GMT 40.442963 -74.033203 10,050 212 285 1216
2021-11-17 13:46:05 GMT 40.445889 -74.030807 10,000 212 283 1536
2021-11-17 13:46:02 GMT 40.448589 -74.028625 9,925 212 281 2048
2021-11-17 13:45:59 GMT 40.452358 -74.025505 9,725 213 278 2496
2021-11-17 13:45:56 GMT 40.456314 -74.022324 9,600 213 275 2432
2021-11-17 13:45:52 GMT 40.459763 -74.019409 9,400 213 276 2432
2021-11-17 13:45:49 GMT 40.463673 -74.016205 9,325 213 273 2752
2021-11-17 13:45:46 GMT 40.466370 -74.014015 9,175 213 272 3008
2021-11-17 13:45:43 GMT 40.473724 -74.007935 9,050 212 272 3392
2021-11-17 13:45:40 GMT 40.473724 -74.007935 8,875 212 272 3328
2021-11-17 13:45:37 GMT 40.476288 -74.005859 8,700 212 272 3392
2021-11-17 13:45:34 GMT 40.479401 -74.003296 8,600 212 272 3392
2021-11-17 13:45:30 GMT 40.483566 -73.999939 8,275 212 273 3264
2021-11-17 13:45:27 GMT 40.487877 -73.996475 8,125 212 272 3008
2021-11-17 13:45:24 GMT 40.490997 -73.993919 8,025 212 271 2688
2021-11-17 13:45:21 GMT 40.492535 -73.992729 7,975 212 269 2496
2021-11-17 13:45:18 GMT 40.496582 -73.989426 7,775 212 269 2432
2021-11-17 13:45:15 GMT 40.499451 -73.987122 7,700 212 268 2624
2021-11-17 13:45:12 GMT 40.503387 -73.983948 7,500 212 266 2816
2021-11-17 13:45:07 GMT 40.512409 -73.976631 7,250 212 266 3072
2021-11-17 13:45:04 GMT 40.512409 -73.976631 7,075 212 265 3136
2021-11-17 13:45:01 GMT 40.513962 -73.975342 7,000 212 265 3136
2021-11-17 13:44:59 GMT 40.517948 -73.972038 5,200 212 254 1792
2021-11-17 13:44:58 GMT 40.518951 -73.971222 5,200 212 254 1792
2021-11-17 13:44:57 GMT 40.519951 -73.970413 5,200 212 254 1792
2021-11-17 13:44:55 GMT 40.521938 -73.968781 5,200 212 254 1792
2021-11-17 13:44:54 GMT 40.522942 -73.967957 5,200 212 254 1792
2021-11-17 13:44:53 GMT 40.524929 -73.966331 5,200 212 254 1792
2021-11-17 13:44:51 GMT 40.525928 -73.965523 5,200 212 254 1792
2021-11-17 13:44:50 GMT 40.526920 -73.964699 5,200 212 254 1792
2021-11-17 13:44:48 GMT 40.528919 -73.963074 5,200 212 254 1792
2021-11-17 13:44:47 GMT 40.529919 -73.962257 5,200 212 254 1792
2021-11-17 13:44:45 GMT 40.531910 -73.960632 5,200 212 254 1792
2021-11-17 13:44:44 GMT 40.532909 -73.959808 5,200 212 254 1792
2021-11-17 13:44:43 GMT 40.533901 -73.959000 5,200 212 254 1792
2021-11-17 13:44:41 GMT 40.535900 -73.957367 5,200 212 254 1792
2021-11-17 13:44:40 GMT 40.536888 -73.956551 5,200 212 254 1792
2021-11-17 13:44:38 GMT 40.538891 -73.954918 5,200 212 254 1792
2021-11-17 13:44:37 GMT 40.539879 -73.954109 5,200 212 254 1792
2021-11-17 13:44:35 GMT 40.541882 -73.952477 5,200 212 254 1792
2021-11-17 13:44:34 GMT 40.542881 -73.951660 5,200 212 254 1792
2021-11-17 13:44:33 GMT 40.543869 -73.950851 5,200 212 254 1792
2021-11-17 13:44:31 GMT 40.545872 -73.949219 5,200 212 254 1792
2021-11-17 13:44:30 GMT 40.546860 -73.948402 5,200 212 254 1792
2021-11-17 13:44:29 GMT 40.547859 -73.947594 5,200 212 254 1792
2021-11-17 13:44:27 GMT 40.549919 -73.945961 5,200 212 253 1792
2021-11-17 13:44:26 GMT 40.551899 -73.944328 5,200 212 253 2112
2021-11-17 13:44:24 GMT 40.552891 -73.943520 5,200 212 253 2112
2021-11-17 13:44:23 GMT 40.554089 -73.942650 5,000 212 250 2112
2021-11-17 13:44:21 GMT 40.556049 -73.941032 5,000 212 250 2112
2021-11-17 13:44:20 GMT 40.557018 -73.940231 5,000 212 250 2112
2021-11-17 13:44:19 GMT 40.559219 -73.938538 4,800 212 246 2112
2021-11-17 13:44:17 GMT 40.560188 -73.937752 4,800 212 246 2112
2021-11-17 13:44:16 GMT 40.562111 -73.936150 4,800 212 246 2112
2021-11-17 13:44:14 GMT 40.563259 -73.935341 4,700 212 243 2112
2021-11-17 13:44:13 GMT 40.565159 -73.933762 4,700 212 243 2112
2021-11-17 13:44:11 GMT 40.566109 -73.932968 4,700 212 243 2112
2021-11-17 13:44:10 GMT 40.567059 -73.932182 4,700 212 243 2112
2021-11-17 13:44:09 GMT 40.568981 -73.930573 4,300 212 243 2112
2021-11-17 13:44:07 GMT 40.570881 -73.928993 4,300 212 243 2112
2021-11-17 13:44:06 GMT 40.571930 -73.928207 4,300 212 241 2112
2021-11-17 13:44:04 GMT 40.572868 -73.927422 4,300 212 241 2112
2021-11-17 13:44:02 GMT 40.574749 -73.925842 4,300 212 241 2112
2021-11-17 13:44:01 GMT 40.575691 -73.925049 4,300 212 241 2112
2021-11-17 13:44:00 GMT 40.577599 -73.923317 4,100 212 240 2112
2021-11-17 13:43:58 GMT 40.578541 -73.922546 4,100 212 240 2112
2021-11-17 13:43:57 GMT 40.579479 -73.921768 4,100 212 240 2112
2021-11-17 13:43:56 GMT 40.580421 -73.920998 4,100 212 240 2112
2021-11-17 13:43:54 GMT 40.582371 -73.919456 3,900 211 239 2112
2021-11-17 13:43:53 GMT 40.583309 -73.918678 3,900 211 239 2112
2021-11-17 13:43:52 GMT 40.584240 -73.917908 3,900 211 239 2112
2021-11-17 13:43:50 GMT 40.585838 -73.916168 3,600 210 241 2112
2021-11-17 13:43:48 GMT 40.587749 -73.914658 3,600 210 241 2112
2021-11-17 13:43:47 GMT 40.588699 -73.913910 3,600 210 241 2112
2021-11-17 13:43:45 GMT 40.590481 -73.912064 3,100 210 241 2112
2021-11-17 13:43:44 GMT 40.591438 -73.911339 3,100 210 241 2112
2021-11-17 13:43:43 GMT 40.592411 -73.910629 3,100 210 241 2112
2021-11-17 13:43:41 GMT 40.594341 -73.909264 3,100 211 243 2112
2021-11-17 13:43:40 GMT 40.595299 -73.908493 3,100 211 243 2112
2021-11-17 13:43:38 GMT 40.598190 -73.906250 2,800 212 244 2112
2021-11-17 13:43:36 GMT 40.599152 -73.905457 2,800 212 244 2112
2021-11-17 13:43:35 GMT 40.601059 -73.903893 2,800 213 244 2112
2021-11-17 13:43:33 GMT 40.602032 -73.903061 2,800 214 242 2112
2021-11-17 13:43:32 GMT 40.603840 -73.901512 2,600 215 249 2112
2021-11-17 13:43:30 GMT 40.604820 -73.900612 2,600 216 245 2112
2021-11-17 13:43:29 GMT 40.605721 -73.899750 2,600 216 247 2112
2021-11-17 13:43:27 GMT 40.607609 -73.897972 2,400 218 242 2112
2021-11-17 13:43:26 GMT 40.608509 -73.897118 2,400 218 242 2112
2021-11-17 13:43:25 GMT 40.609409 -73.896179 2,400 219 240 704
2021-11-17 13:43:23 GMT 40.611149 -73.894386 2,100 220 240 704
2021-11-17 13:43:22 GMT 40.611980 -73.893501 2,100 220 242 704
2021-11-17 13:43:21 GMT 40.613720 -73.891579 2,100 221 238 704
2021-11-17 13:43:19 GMT 40.614590 -73.890648 2,100 222 236 704
2021-11-17 13:43:18 GMT 40.616261 -73.888710 2,100 223 232 704
2021-11-17 13:43:16 GMT 40.617039 -73.887779 2,100 223 233 704
2021-11-17 13:43:15 GMT 40.617809 -73.886879 2,100 224 237 704
2021-11-17 13:43:13 GMT 40.619400 -73.884842 1,700 223 233 704
2021-11-17 13:43:11 GMT 40.620979 -73.882858 1,700 224 230 704
2021-11-17 13:43:10 GMT 40.621799 -73.881866 1,700 224 227 704
2021-11-17 13:43:08 GMT 40.623280 -73.879967 1,700 224 229 704
2021-11-17 13:43:07 GMT 40.623989 -73.878967 1,700 223 230 704
2021-11-17 13:43:06 GMT 40.625462 -73.877052 1,600 222 234 704
2021-11-17 13:43:04 GMT 40.626301 -73.876091 1,600 222 230 704
2021-11-17 13:43:03 GMT 40.627090 -73.875107 1,600 222 226 704
2021-11-17 13:43:02 GMT 40.628651 -73.873230 1,600 222 223 704
2021-11-17 13:43:00 GMT 40.629429 -73.872299 1,400 222 221 704
2021-11-17 13:42:59 GMT 40.630131 -73.871384 1,400 222 222 704
2021-11-17 13:42:57 GMT 40.631660 -73.869591 1,400 222 219 704
2021-11-17 13:42:56 GMT 40.632389 -73.868683 1,400 223 218 704
2021-11-17 13:42:54 GMT 40.633831 -73.866852 1,400 222 215 704
2021-11-17 13:42:53 GMT 40.634602 -73.865883 1,400 222 208 704
2021-11-17 13:42:52 GMT 40.635990 -73.864220 1,425 223 210 704
2021-11-17 13:42:50 GMT 40.636681 -73.863327 1,300 222 209 704
2021-11-17 13:42:49 GMT 40.637390 -73.862511 1,300 223 209 704
2021-11-17 13:42:47 GMT 40.638840 -73.860764 1,300 224 202 704
2021-11-17 13:42:46 GMT 40.639511 -73.859894 1,300 224 200 704
2021-11-17 13:42:44 GMT 40.640839 -73.858200 1,300 223 199 704
2021-11-17 13:42:43 GMT 40.641510 -73.857323 1,300 224 195 704
2021-11-17 13:42:42 GMT 40.642120 -73.856438 1,275 223 194 704
2021-11-17 13:42:41 GMT 40.642750 -73.855568 1,275 222 192 704
2021-11-17 13:42:39 GMT 40.644020 -73.853889 1,200 221 188 704
2021-11-17 13:42:38 GMT 40.644619 -73.853104 1,200 221 189 704
2021-11-17 13:42:37 GMT 40.645248 -73.852280 1,150 221 187 -1216
2021-11-17 13:42:35 GMT 40.646469 -73.850739 1,150 223 190 -1216
2021-11-17 13:42:34 GMT 40.647091 -73.849983 1,100 226 189 1536
2021-11-17 13:42:32 GMT 40.648319 -73.848389 1,100 231 186 1536
2021-11-17 13:42:31 GMT 40.648842 -73.847557 1,100 233 186 1536
2021-11-17 13:42:30 GMT 40.649380 -73.846657 1,100 235 184 1536
2021-11-17 13:42:28 GMT 40.650330 -73.844910 1,000 241 183 1536
2021-11-17 13:42:27 GMT 40.650791 -73.844017 1,000 245 182 1536
2021-11-17 13:42:26 GMT 40.651199 -73.843010 1,000 248 178 1536
2021-11-17 13:42:25 GMT 40.651859 -73.841049 900 254 177 0
2021-11-17 13:42:23 GMT 40.652302 -73.839027 900 258 177 0
2021-11-17 13:42:21 GMT 40.652512 -73.838020 825 262 177 0
2021-11-17 13:42:20 GMT 40.652760 -73.835968 400 266 179 0
2021-11-17 13:42:18 GMT 40.652870 -73.834892 400 270 178 0
2021-11-17 13:42:17 GMT 40.652901 -73.832817 400 276 181 0
2021-11-17 13:42:15 GMT 40.652859 -73.831779 400 278 183 0
2021-11-17 13:42:14 GMT 40.652599 -73.829529 400 282 175 0
2021-11-17 13:42:12 GMT 40.652470 -73.828468 400 286 174 0
2021-11-17 13:42:11 GMT 40.652260 -73.827431 400 289 173 0
2021-11-17 13:42:10 GMT 40.652050 -73.826469 350 291 176 0
2021-11-17 13:42:09 GMT 40.651489 -73.824448 350 296 175 0
2021-11-17 13:42:07 GMT 40.651150 -73.823471 300 298 174 0
2021-11-17 13:42:06 GMT 40.650768 -73.822502 300 299 171 0
2021-11-17 13:42:04 GMT 40.649609 -73.819748 200 300 172 0
2021-11-17 13:42:02 GMT 40.649189 -73.818863 0 299 172 0
2021-11-17 13:42:00 GMT 40.648399 -73.817039 0 300 174 0
2021-11-17 13:41:59 GMT 40.647980 -73.816116 -50 300 174 0
2021-11-17 13:41:57 GMT 40.647179 -73.814308 -150 300 176 0
2021-11-17 13:41:56 GMT 40.646778 -73.813393 -375 300 178 0
2021-11-17 13:41:55 GMT 40.645920 -73.811508 -375 299 173 0
2021-11-17 13:41:54 GMT 40.645550 -73.810623 -375 300 179 0
2021-11-17 13:41:52 GMT 40.644718 -73.808746 -375 300 177 0
2021-11-17 13:41:50 GMT 40.644299 -73.807800 -375 300 174 0
2021-11-17 13:41:49 GMT 40.643879 -73.806931 -375 300 174 0
2021-11-17 13:41:47 GMT 40.643070 -73.805130 -375 300 170 -160
2021-11-17 13:41:46 GMT 40.642658 -73.804199 -375 300 165 -160
2021-11-17 13:41:44 GMT 40.641880 -73.802483 -350 300 159 -160
2021-11-17 13:41:43 GMT 40.641510 -73.801651 -350 300 157 -160
2021-11-17 13:41:42 GMT 40.640759 -73.800011 -350 300 151 -32
2021-11-17 13:41:40 GMT 40.640388 -73.799232 -350 299 149 -32
2021-11-17 13:41:39 GMT 40.640072 -73.798439 -350 300 146 -32
2021-11-17 13:41:38 GMT 40.639729 -73.797684 -350 300 145 -32
2021-11-17 13:41:36 GMT 40.639030 -73.796127 -350 300 133 -32
2021-11-17 13:41:35 GMT 40.638401 -73.794746 0 300 128 -32
2021-11-17 13:41:33 GMT 40.638100 -73.794113 0 300 126 -32
2021-11-17 13:41:32 GMT 40.637810 -73.793457 0 300 125 -32
2021-11-17 13:41:30 GMT 40.637211 -73.792160 0 300 116
2021-11-17 13:41:29 GMT 40.636929 -73.791542 0 300 112
2021-11-17 13:41:27 GMT 40.636429 -73.790390 0 301 106
2021-11-17 13:41:26 GMT 40.636169 -73.789803 0 300 99
2021-11-17 13:41:25 GMT 40.635689 -73.788742 0 300 89
2021-11-17 13:41:23 GMT 40.635460 -73.788277 0 300 85
2021-11-17 13:41:21 GMT 40.635071 -73.787422 0 299 81
2021-11-17 13:41:20 GMT 40.634892 -73.786980 0 300 77
2021-11-17 13:41:18 GMT 40.634548 -73.786179 0 301 69
2021-11-17 13:41:17 GMT 40.634361 -73.785782 0 301 61
2021-11-17 13:41:16 GMT 40.634071 -73.785172 0 301 53
2021-11-17 13:41:14 GMT 40.633911 -73.784866 0 299 46
2021-11-17 13:41:13 GMT 40.633781 -73.784576 0 299 40
2021-11-17 13:41:11 GMT 40.633579 -73.784126 0 298 31
2021-11-17 13:41:10 GMT 40.633518 -73.783943 0 301 28
2021-11-17 13:41:08 GMT 40.633400 -73.783630 0 307 21
2021-11-17 13:41:07 GMT 40.633339 -73.783478 0 312 18
2021-11-17 13:41:06 GMT 40.633209 -73.783287 0 307 12
2021-11-17 13:41:04 GMT 40.633190 -73.783218 0 304 12
2021-11-17 13:41:02 GMT 40.633121 -73.783127 0 279 11
2021-11-17 13:41:01 GMT 40.633080 -73.783073 0 265 9
2021-11-17 13:40:59 GMT 40.633049 -73.782959 0 241 9
2021-11-17 13:40:58 GMT 40.633060 -73.782898 0 236 9
2021-11-17 13:40:57 GMT 40.633099 -73.782768 0 215 10
2021-11-17 13:40:55 GMT 40.633141 -73.782730 0 206 9
2021-11-17 13:40:54 GMT 40.633209 -73.782661 0 205 9
2021-11-17 13:40:52 GMT 40.633228 -73.782639 0 203 11
2021-11-17 13:40:51 GMT 40.633320 -73.782570 0 202 10
2021-11-17 13:40:49 GMT 40.633381 -73.782562 0 208 9
2021-11-17 13:40:48 GMT 40.633450 -73.782532 0 217 8
2021-11-17 13:40:46 GMT 40.633492 -73.782494 0 213 7
2021-11-17 13:40:45 GMT 40.633518 -73.782463 0 210 7
2021-11-17 13:40:44 GMT 40.633572 -73.782402 0 207 6
2021-11-17 13:40:42 GMT 40.633598 -73.782402 0 212 7
2021-11-17 13:40:41 GMT 40.633629 -73.782372 0 210 6
2021-11-17 13:40:39 GMT 40.633678 -73.782341 0 217 6
2021-11-17 13:40:38 GMT 40.633720 -73.782333 0 213 5
2021-11-17 13:40:37 GMT 40.633732 -73.782257 0 195 5
2021-11-17 13:40:34 GMT 40.633781 -73.782242 0 200 4
2021-11-17 13:40:33 GMT 40.633789 -73.782249 0 201 5
2021-11-17 13:40:31 GMT 40.633869 -73.782242 0 208 5
2021-11-17 13:40:29 GMT 40.633869 -73.782227 0 193 6
2021-11-17 13:40:28 GMT 40.633888 -73.782204 0 173 5
2021-11-17 13:40:27 GMT 40.633900 -73.782181 0 150 6
2021-11-17 13:40:25 GMT 40.633991 -73.782188 0 124 4
2021-11-17 13:40:24 GMT 40.633999 -73.782211 0 126 4
2021-11-17 13:40:22 GMT 40.634010 -73.782249 0 122 8
2021-11-17 13:40:21 GMT 40.634041 -73.782280 0 118 8
2021-11-17 13:40:19 GMT 40.634071 -73.782341 0 118 14
2021-11-17 13:40:18 GMT 40.634109 -73.782433 0 118 13
2021-11-17 13:40:16 GMT 40.634178 -73.782608 0 118 15
2021-11-17 13:40:14 GMT 40.634220 -73.782700 0 119 15
2021-11-17 13:40:12 GMT 40.634258 -73.782837 0 123 19
2021-11-17 13:40:11 GMT 40.634281 -73.782951 0 130 20
2021-11-17 13:40:10 GMT 40.634369 -73.783043 0 123 18
2021-11-17 13:40:09 GMT 40.634460 -73.783218 0 121 20
2021-11-17 13:40:07 GMT 40.634521 -73.783340 0 121 18
2021-11-17 13:40:06 GMT 40.634579 -73.783432 0 117 19
2021-11-17 13:40:04 GMT 40.634640 -73.783600 0 116 24
2021-11-17 13:40:03 GMT 40.634701 -73.783752 0 117 22
2021-11-17 13:40:02 GMT 40.634739 -73.783867 0 119 22
2021-11-17 13:40:00 GMT 40.634830 -73.784081 0 121 25
2021-11-17 13:39:59 GMT 40.634892 -73.784233 0 121 23
2021-11-17 13:39:57 GMT 40.635010 -73.784500 0 124 20
2021-11-17 13:39:56 GMT 40.635052 -73.784599 0 125 20
2021-11-17 13:39:54 GMT 40.635170 -73.784798 0 121 20
2021-11-17 13:39:53 GMT 40.635231 -73.784897 0 118 20
2021-11-17 13:39:52 GMT 40.635300 -73.785133 0 125 21
2021-11-17 13:39:50 GMT 40.635361 -73.785233 0 123 21
2021-11-17 13:39:48 GMT 40.635502 -73.785477 0 117 19
2021-11-17 13:39:47 GMT 40.635551 -73.785599 0 121 17
2021-11-17 13:39:45 GMT 40.635639 -73.785767 0 118 17
2021-11-17 13:39:44 GMT 40.635670 -73.785843 0 117 19
2021-11-17 13:39:42 GMT 40.635761 -73.786087 0 118 17
2021-11-17 13:39:41 GMT 40.635792 -73.786179 0 120 19
2021-11-17 13:39:40 GMT 40.635899 -73.786369 0 113 20
2021-11-17 13:39:38 GMT 40.635899 -73.786461 0 121 23
2021-11-17 13:39:37 GMT 40.636009 -73.786728 0 126 19
2021-11-17 13:39:35 GMT 40.636070 -73.786819 0 123 19
2021-11-17 13:39:34 GMT 40.636169 -73.786987 0 120 21
2021-11-17 13:39:32 GMT 40.636211 -73.787086 0 121 23
2021-11-17 13:39:31 GMT 40.636269 -73.787239 0 123 20
2021-11-17 13:39:29 GMT 40.636360 -73.787407 0 123 23
2021-11-17 13:39:28 GMT 40.636429 -73.787521 0 118 22
2021-11-17 13:39:27 GMT 40.636490 -73.787643 0 116 22
2021-11-17 13:39:25 GMT 40.636570 -73.787910 0 124 19
2021-11-17 13:39:24 GMT 40.636639 -73.788002 0 119 19
2021-11-17 13:39:23 GMT 40.636719 -73.788193 0 117 21
2021-11-17 13:39:21 GMT 40.636822 -73.788437 0 118 20
2021-11-17 13:39:19 GMT 40.636841 -73.788521 0 121 22
2021-11-17 13:39:18 GMT 40.636929 -73.788727 0 123 24
2021-11-17 13:39:16 GMT 40.637020 -73.788879 0 120 21
2021-11-17 13:39:15 GMT 40.637070 -73.788986 0 118 21
2021-11-17 13:39:13 GMT 40.637150 -73.789223 0 122 21
2021-11-17 13:39:12 GMT 40.637192 -73.789330 0 125 22
2021-11-17 13:39:10 GMT 40.637310 -73.789528 0 121 24
2021-11-17 13:39:09 GMT 40.637360 -73.789680 0 124 23
2021-11-17 13:39:07 GMT 40.637501 -73.789932 0 119 20
2021-11-17 13:39:06 GMT 40.637531 -73.790024 0 121 23
2021-11-17 13:39:05 GMT 40.637600 -73.790169 0 121 21
2021-11-17 13:39:04 GMT 40.637699 -73.790382 0 119 21
2021-11-17 13:39:02 GMT 40.637730 -73.790459 0 119 23
2021-11-17 13:39:01 GMT 40.637791 -73.790588 0 120 23
2021-11-17 13:38:59 GMT 40.637871 -73.790810 0 122 25
2021-11-17 13:38:58 GMT 40.637951 -73.790977 0 122 23
2021-11-17 13:38:57 GMT 40.638062 -73.791199 0 122 24
2021-11-17 13:38:55 GMT 40.638130 -73.791321 0 120 23
2021-11-17 13:38:54 GMT 40.638191 -73.791451 0 121 22
2021-11-17 13:38:52 GMT 40.638290 -73.791656 0 119 24
2021-11-17 13:38:51 GMT 40.638329 -73.791779 0 120 26
2021-11-17 13:38:50 GMT 40.638439 -73.792084 0 126 24
2021-11-17 13:38:48 GMT 40.638512 -73.792191 0 123 24
2021-11-17 13:38:47 GMT 40.638599 -73.792320 0 116 21
2021-11-17 13:38:45 GMT 40.638672 -73.792503 0 117 25
2021-11-17 13:38:44 GMT 40.638710 -73.792641 0 122 26
2021-11-17 13:38:42 GMT 40.638821 -73.792908 0 126 27
2021-11-17 13:38:41 GMT 40.638908 -73.793037 0 122 25
2021-11-17 13:38:39 GMT 40.639030 -73.793289 0 118 25
2021-11-17 13:38:38 GMT 40.639080 -73.793442 0 121 24
2021-11-17 13:38:36 GMT 40.639198 -73.793701 0 121 24
2021-11-17 13:38:35 GMT 40.639252 -73.793823 0 122 25
2021-11-17 13:38:34 GMT 40.639309 -73.793961 0 123 25
2021-11-17 13:38:32 GMT 40.639450 -73.794197 0 116 25
2021-11-17 13:38:31 GMT 40.639511 -73.794327 0 114 25
2021-11-17 13:38:30 GMT 40.639610 -73.794601 0 119 26
2021-11-17 13:38:28 GMT 40.639679 -73.794739 0 121 25
2021-11-17 13:38:27 GMT 40.639721 -73.794861 0 125 26
2021-11-17 13:38:26 GMT 40.639870 -73.795113 0 130 27
2021-11-17 13:38:24 GMT 40.639950 -73.795197 0 130 28
2021-11-17 13:38:23 GMT 40.640091 -73.795464 0 142 30
2021-11-17 13:38:21 GMT 40.640179 -73.795570 0 148 31
2021-11-17 13:38:20 GMT 40.640289 -73.795708 0 157 29
2021-11-17 13:38:19 GMT 40.640518 -73.795891 0 168 28
2021-11-17 13:38:17 GMT 40.640671 -73.795952 0 173 26
2021-11-17 13:38:15 GMT 40.640900 -73.796013 0 177 26
2021-11-17 13:38:14 GMT 40.641022 -73.796028 0 178 26
2021-11-17 13:38:13 GMT 40.641159 -73.796043 0 178 24
2021-11-17 13:38:11 GMT 40.641350 -73.796043 0 181 27
2021-11-17 13:38:10 GMT 40.641449 -73.796082 0 185 30
2021-11-17 13:38:09 GMT 40.641720 -73.796051 0 185 31
2021-11-17 13:38:07 GMT 40.641880 -73.796043 0 186 27
2021-11-17 13:38:06 GMT 40.642109 -73.795990 0 181 31
2021-11-17 13:38:04 GMT 40.642262 -73.795937 0 176 30
2021-11-17 13:38:03 GMT 40.642509 -73.796028 0 184 34
2021-11-17 13:38:01 GMT 40.642769 -73.795998 0 184 28
2021-11-17 13:38:00 GMT 40.642910 -73.795990 0 184 28
2021-11-17 13:37:59 GMT 40.643188 -73.795937 0 182 26
2021-11-17 13:37:57 GMT 40.643330 -73.795921 0 181 25
2021-11-17 13:37:56 GMT 40.643471 -73.795914 0 179 24
2021-11-17 13:37:54 GMT 40.643700 -73.795883 0 176 22
2021-11-17 13:37:53 GMT 40.643902 -73.795891 0 175 23
2021-11-17 13:37:49 GMT 40.644199 -73.795998 0 187 27
2021-11-17 13:37:47 GMT 40.644470 -73.795937 0 179 23
2021-11-17 13:37:46 GMT 40.644588 -73.795914 0 167 22
2021-11-17 13:37:45 GMT 40.644829 -73.795769 0 157 22
2021-11-17 13:37:43 GMT 40.644909 -73.795776 0 155 23
2021-11-17 13:37:42 GMT 40.645088 -73.795868 0 154 23
2021-11-17 13:37:40 GMT 40.645191 -73.795929 0 154 23
2021-11-17 13:37:39 GMT 40.645420 -73.796043 0 150 21
2021-11-17 13:37:37 GMT 40.645481 -73.796089 0 151 22
2021-11-17 13:37:36 GMT 40.645691 -73.796204 0 145 21
2021-11-17 13:37:34 GMT 40.645771 -73.796257 0 144 22
2021-11-17 13:37:32 GMT 40.645969 -73.796463 0 145 20
2021-11-17 13:37:31 GMT 40.646042 -73.796516 0 145 20
2021-11-17 13:37:30 GMT 40.646111 -73.796570 0 143 21
2021-11-17 13:37:28 GMT 40.646259 -73.796692 0 140 23
2021-11-17 13:37:26 GMT 40.646469 -73.796867 0 136 20
2021-11-17 13:37:25 GMT 40.646488 -73.796944 0 139 24
2021-11-17 13:37:24 GMT 40.646568 -73.796997 0 136 26
2021-11-17 13:37:22 GMT 40.646751 -73.797256 0 144 23
2021-11-17 13:37:21 GMT 40.646912 -73.797432 0 153 21
2021-11-17 13:37:19 GMT 40.647049 -73.797592 0 157 20
2021-11-17 13:37:18 GMT 40.647129 -73.797638 0 158 20
2021-11-17 13:37:16 GMT 40.647270 -73.797813 0 164 20
2021-11-17 13:37:15 GMT 40.647388 -73.797829 0 162 18
2021-11-17 13:37:13 GMT 40.647511 -73.797928 0 172 21
2021-11-17 13:37:12 GMT 40.647591 -73.797943 0 172 23
2021-11-17 13:37:11 GMT 40.647789 -73.797989 0 173 23
2021-11-17 13:37:09 GMT 40.647869 -73.797989 0 172 25
2021-11-17 13:37:08 GMT 40.647980 -73.798027 0 175 25
2021-11-17 13:37:06 GMT 40.648281 -73.798088 0 179 22
2021-11-17 13:37:05 GMT 40.648380 -73.798088 0 179 22
2021-11-17 13:37:03 GMT 40.648590 -73.798088 0 179 22
2021-11-17 13:37:02 GMT 40.648689 -73.798111 0 181 22
2021-11-17 13:37:00 GMT 40.648899 -73.798119 0 183 22
2021-11-17 13:36:58 GMT 40.649109 -73.798126 0 187 22
2021-11-17 13:36:56 GMT 40.649281 -73.798103 0 178 24
2021-11-17 13:36:55 GMT 40.649380 -73.798103 0 180 24
2021-11-17 13:36:54 GMT 40.649590 -73.798111 0 185 24
2021-11-17 13:36:52 GMT 40.649761 -73.798241 0 204 22
2021-11-17 13:36:51 GMT 40.649860 -73.798241 0 206 22
2021-11-17 13:36:49 GMT 40.650051 -73.798157 0 209 22
2021-11-17 13:36:47 GMT 40.650249 -73.798073 0 213 22
2021-11-17 13:36:46 GMT 40.650372 -73.798073 0 217 22
2021-11-17 13:36:45 GMT 40.650452 -73.797989 0 218 22
2021-11-17 13:36:43 GMT 40.650639 -73.797852 0 223 22
2021-11-17 13:36:42 GMT 40.650730 -73.797783 0 226 22
2021-11-17 13:36:41 GMT 40.650822 -73.797707 0 229 22
2021-11-17 13:36:39 GMT 40.650990 -73.797531 0 235 22
2021-11-17 13:36:38 GMT 40.651070 -73.797432 0 238 22
2021-11-17 13:36:37 GMT 40.651192 -73.797211 0 241 22
2021-11-17 13:36:35 GMT 40.651249 -73.797096 0 241 22
2021-11-17 13:36:33 GMT 40.651348 -73.796860 0 242 21
2021-11-17 13:36:30 GMT 40.651459 -73.796532 0 238 23
2021-11-17 13:36:29 GMT 40.651501 -73.796410 0 236 23
2021-11-17 13:36:27 GMT 40.651680 -73.796120 0 241 20
2021-11-17 13:36:26 GMT 40.651741 -73.795998 0 241 20
2021-11-17 13:36:24 GMT 40.651859 -73.795753 0 245 17
2021-11-17 13:36:23 GMT 40.651909 -73.795639 0 246 16
2021-11-17 13:36:21 GMT 40.651989 -73.795433 0 247 14
2021-11-17 13:36:20 GMT 40.652020 -73.795326 0 241 13
2021-11-17 13:36:19 GMT 40.652020 -73.795250 0 232 17
2021-11-17 13:36:17 GMT 40.652100 -73.795059 0 232 17
2021-11-17 13:36:16 GMT 40.652149 -73.794968 0 234 16
2021-11-17 13:36:14 GMT 40.652241 -73.794731 0 264 14
2021-11-17 13:36:13 GMT 40.652431 -73.794510 0 287 9
2021-11-17 13:36:11 GMT 40.652481 -73.794411 0 289 9
2021-11-17 13:36:10 GMT 40.652500 -73.794312 0 290 9
2021-11-17 13:36:08 GMT 40.652489 -73.794128 0 290 9
2021-11-17 13:36:06 GMT 40.652489 -73.794182 0 290 12
2021-11-17 13:36:05 GMT 40.652431 -73.794029 0 299 12
2021-11-17 13:36:03 GMT 40.652500 -73.793922 0 318 12
2021-11-17 13:36:02 GMT 40.652458 -73.793839 0 320 11
2021-11-17 13:36:00 GMT 40.652431 -73.793739 0 328 13
2021-11-17 13:35:59 GMT 40.652382 -73.793678 0 328 13
2021-11-17 13:35:57 GMT 40.652279 -73.793610 0 327 12
2021-11-17 13:35:56 GMT 40.652222 -73.793556 0 327 12
2021-11-17 13:35:54 GMT 40.652119 -73.793480 0 326 11
2021-11-17 13:35:53 GMT 40.652081 -73.793449 0 326 11
2021-11-17 13:35:51 GMT 40.651981 -73.793373 0 327 10
2021-11-17 13:35:50 GMT 40.651939 -73.793327 0 329 10
2021-11-17 13:35:48 GMT 40.651859 -73.793251 0 334 8
2021-11-17 13:35:47 GMT 40.651821 -73.793198 0 336 7
2021-11-17 13:35:46 GMT 40.651779 -73.793213 0 334 7
2021-11-17 13:35:45 GMT 40.651749 -73.793167 0 338 7
2021-11-17 13:35:44 GMT 40.651730 -73.793167 0 341 8
2021-11-17 13:35:42 GMT 40.651661 -73.793098 0 355 6
2021-11-17 13:35:41 GMT 40.651588 -73.793083 0 31 4
2021-11-17 13:35:39 GMT 40.651569 -73.793053 0 35 3
2021-11-17 13:35:38 GMT 40.651550 -73.793030 0 37 3
2021-11-17 13:35:36 GMT 40.651531 -73.792999 0 37 3
2021-11-17 13:35:35 GMT 40.651470 -73.793037 0 43 2
2021-11-17 13:35:33 GMT 40.651409 -73.793053 0 43 2
2021-11-17 13:35:32 GMT 40.651340 -73.793068 0 43 2
2021-11-17 13:35:31 GMT 40.651291 -73.793083 0 43 2
2021-11-17 13:35:29 GMT 40.651241 -73.793098 0 43 3
2021-11-17 13:35:28 GMT 40.651218 -73.793098 0 43 2
2021-11-17 13:35:27 GMT 40.651199 -73.793114 0 43 2
2021-11-17 13:35:25 GMT 40.651180 -73.793121 0 43 2
2021-11-17 13:35:24 GMT 40.651138 -73.793159 0 43 0
2021-11-17 13:35:22 GMT 40.651131 -73.793167 0 43 0
2021-11-17 13:35:21 GMT 40.651119 -73.793167 0 43 0
2021-11-17 13:35:20 GMT 40.651119 -73.793182 0 43 0
2021-11-17 13:35:19 GMT 40.651138 -73.793167 0 43 0
2021-11-17 13:35:17 GMT 40.651138 -73.793167 0 43 0
2021-11-17 13:35:16 GMT 40.651112 -73.793167 0 43 0
2021-11-17 13:35:14 GMT 40.651131 -73.793159 0 43 0
2021-11-17 13:35:13 GMT 40.651138 -73.793167 0 43 0
2021-11-17 13:35:12 GMT 40.651138 -73.793182 0 43 0
2021-11-17 13:35:10 GMT 40.651112 -73.793182 0 43 0
2021-11-17 13:35:09 GMT 40.651131 -73.793167 0 43 0
2021-11-17 13:35:08 GMT 40.651150 -73.793167 0 43 0
2021-11-17 13:35:05 GMT 40.651112 -73.793182 0 43 0
2021-11-17 13:35:03 GMT 40.651119 -73.793159 0 43 0
2021-11-17 13:35:02 GMT 40.651131 -73.793167 0 43 0
2021-11-17 13:35:01 GMT 40.651112 -73.793190 0 43 0
2021-11-17 13:34:58 GMT 40.651131 -73.793167 0 43 0
2021-11-17 13:34:57 GMT 40.651089 -73.793182 0 43 0
2021-11-17 13:34:55 GMT 40.651100 -73.793167 0 43 0
2021-11-17 13:34:54 GMT 40.651138 -73.793182 0 43 0
2021-11-17 13:34:52 GMT 40.651138 -73.793167 0 43 0
2021-11-17 13:34:50 GMT 40.651112 -73.793190 0 43 0
2021-11-17 13:34:47 GMT 40.651138 -73.793167 0 43 0
2021-11-17 13:34:46 GMT 40.651112 -73.793198 0 43 0
2021-11-17 13:34:45 GMT 40.651112 -73.793190 0 43 0
2021-11-17 13:34:43 GMT 40.651138 -73.793182 0 43 0
2021-11-17 13:34:42 GMT 40.651112 -73.793190 0 43 0
2021-11-17 13:34:40 GMT 40.651119 -73.793190 0 43 0
2021-11-17 13:34:38 GMT 40.651131 -73.793159 0 43 0
2021-11-17 13:34:36 GMT 40.651089 -73.793182 0 43 0
2021-11-17 13:34:35 GMT 40.651100 -73.793167 0 43 0
2021-11-17 13:34:33 GMT 40.651131 -73.793182 0 43 0
2021-11-17 13:34:32 GMT 40.651131 -73.793159 0 43 0
2021-11-17 13:34:31 GMT 40.651089 -73.793182 0 43 0
2021-11-17 13:34:28 GMT 40.651138 -73.793182 0 43 0
2021-11-17 13:34:25 GMT 40.651112 -73.793190 0 43 0
2021-11-17 13:34:22 GMT 40.651138 -73.793167 0 43 0
2021-11-17 13:34:20 GMT 40.651100 -73.793190 0 43 0
2021-11-17 13:34:19 GMT 40.651112 -73.793182 0 43 0
2021-11-17 13:34:17 GMT 40.651119 -73.793159 0 43 0
2021-11-17 13:34:16 GMT 40.651100 -73.793190 0 43 0
2021-11-17 13:34:14 GMT 40.651112 -73.793190 0 43 0
2021-11-17 13:34:12 GMT 40.651138 -73.793182 0 43 0
2021-11-17 13:34:10 GMT 40.651100 -73.793167 0 43 0
2021-11-17 13:34:09 GMT 40.651100 -73.793182 0 43 0
2021-11-17 13:34:07 GMT 40.651138 -73.793182 0 43 0
2021-11-17 13:34:05 GMT 40.651100 -73.793213 0 43 0
2021-11-17 13:34:04 GMT 40.651112 -73.793198 0 43 0
2021-11-17 13:34:03 GMT 40.651150 -73.793213 0 43 0
2021-11-17 13:34:01 GMT 40.651112 -73.793228 0 43 0
2021-11-17 13:33:59 GMT 40.651138 -73.793182 0 43 0
2021-11-17 13:33:57 GMT 40.651138 -73.793182 0 43 0
2021-11-17 13:33:56 GMT 40.651112 -73.793221 0 43 0
2021-11-17 13:33:54 GMT 40.651131 -73.793221 0 43 0
2021-11-17 13:33:53 GMT 40.651131 -73.793167 0 43 0
2021-11-17 13:33:52 GMT 40.651100 -73.793190 0 43 0
2021-11-17 13:33:50 GMT 40.651100 -73.793182 0 43 0
2021-11-17 13:33:49 GMT 40.651138 -73.793182 0 43 0
2021-11-17 13:33:47 GMT 40.651138 -73.793182 0 43 0
2021-11-17 13:33:46 GMT 40.651131 -73.793182 0 43 0
2021-11-17 13:33:45 GMT 40.651100 -73.793198 0 43 0
2021-11-17 13:33:43 GMT 40.651131 -73.793182 0 43 0
2021-11-17 13:33:42 GMT 40.651131 -73.793190 0 43 0
2021-11-17 13:33:40 GMT 40.651100 -73.793198 0 43 0
2021-11-17 13:33:39 GMT 40.651112 -73.793190 0 43 0
2021-11-17 13:33:38 GMT 40.651131 -73.793182 0 43 0
2021-11-17 13:33:36 GMT 40.651131 -73.793167 0 43 0
2021-11-17 13:33:35 GMT 40.651089 -73.793190 0 43 0
2021-11-17 13:33:32 GMT 40.651100 -73.793198 0 43 0
2021-11-17 13:33:30 GMT 40.651100 -73.793198 0 43 0
2021-11-17 13:33:29 GMT 40.651119 -73.793182 0 43 0
2021-11-17 13:33:28 GMT 40.651131 -73.793159 0 43 0
2021-11-17 13:33:25 GMT 40.651100 -73.793198 0 43 0
2021-11-17 13:33:23 GMT 40.651119 -73.793182 0 43 0
2021-11-17 13:33:22 GMT 40.651131 -73.793182 0 43 0
2021-11-17 13:33:21 GMT 40.651100 -73.793198 0 43 0
2021-11-17 13:33:19 GMT 40.651131 -73.793182 0 43 0
2021-11-17 13:33:18 GMT 40.651119 -73.793159 0 43 0
2021-11-17 13:33:16 GMT 40.651089 -73.793190 0 43 0
2021-11-17 13:33:15 GMT 40.651089 -73.793182 0 43 0
2021-11-17 13:33:12 GMT 40.651131 -73.793167 0 43 0
2021-11-17 13:33:11 GMT 40.651089 -73.793182 0 43 0
2021-11-17 13:33:09 GMT 40.651119 -73.793182 0 43 0
2021-11-17 13:33:08 GMT 40.651112 -73.793159 0 43 0
2021-11-17 13:33:06 GMT 40.651081 -73.793182 0 43 0
2021-11-17 13:33:05 GMT 40.651131 -73.793182 0 43 0
2021-11-17 13:33:03 GMT 40.651131 -73.793182 0 43 0
2021-11-17 13:33:02 GMT 40.651131 -73.793190 0 43 0
2021-11-17 13:33:01 GMT 40.651119 -73.793251 0 43 1
2021-11-17 13:32:58 GMT 40.651161 -73.793228 0 43 1
2021-11-17 13:32:55 GMT 40.651089 -73.793213 0 43 0
2021-11-17 13:32:54 GMT 40.651100 -73.793198 0 43 0
2021-11-17 13:32:53 GMT 40.651150 -73.793228 0 43 0
2021-11-17 13:32:50 GMT 40.651089 -73.793190 0 43 0
2021-11-17 13:32:47 GMT 40.651081 -73.793152 0 43 0
2021-11-17 13:32:44 GMT 40.651081 -73.793182 0 43 0
2021-11-17 13:32:43 GMT 40.651119 -73.793159 0 43 0
2021-11-17 13:32:40 GMT 40.651100 -73.793190 0 43 0
2021-11-17 13:32:39 GMT 40.651112 -73.793190 0 43 0
2021-11-17 13:32:37 GMT 40.651119 -73.793159 0 43 0
2021-11-17 13:32:35 GMT 40.651089 -73.793182 0 43 0
2021-11-17 13:32:33 GMT 40.651131 -73.793159 0 43 0
2021-11-17 13:32:32 GMT 40.651138 -73.793182 0 43 0
2021-11-17 13:32:30 GMT 40.651089 -73.793182 0 43 0
2021-11-17 13:32:29 GMT 40.651112 -73.793167 0 43 0
2021-11-17 13:32:28 GMT 40.651131 -73.793159 0 43 0
2021-11-17 13:32:27 GMT 40.651138 -73.793167 0 43 0
2021-11-17 13:32:25 GMT 40.651100 -73.793221 0 43 0
2021-11-17 13:32:24 GMT 40.651119 -73.793198 0 43 0
2021-11-17 13:32:23 GMT 40.651119 -73.793159 0 43 0
2021-11-17 13:32:21 GMT 40.651100 -73.793182 0 43 0
2021-11-17 13:32:20 GMT 40.651089 -73.793182 0 43 0
2021-11-17 13:32:18 GMT 40.651119 -73.793159 0 43 0
2021-11-17 13:32:17 GMT 40.651131 -73.793182 0 43 0
2021-11-17 13:32:15 GMT 40.651100 -73.793190 0 43 0
2021-11-17 13:32:14 GMT 40.651119 -73.793167 0 43 0
2021-11-17 13:32:13 GMT 40.651138 -73.793182 0 43 0
2021-11-17 13:32:12 GMT 40.651138 -73.793167 0 43 0
2021-11-17 13:32:10 GMT 40.651089 -73.793182 0 43 0
2021-11-17 13:32:09 GMT 40.651112 -73.793159 0 43 0
2021-11-17 13:32:07 GMT 40.651119 -73.793159 0 43 0
2021-11-17 13:32:06 GMT 40.651100 -73.793182 0 43 0
2021-11-17 13:32:05 GMT 40.651112 -73.793190 0 43 0
2021-11-17 13:32:03 GMT 40.651150 -73.793167 0 43 0
2021-11-17 13:32:02 GMT 40.651150 -73.793159 0 43 0
2021-11-17 13:32:00 GMT 40.651169 -73.793137 0 43 0
2021-11-17 13:31:59 GMT 40.651192 -73.793121 0 43 0
2021-11-17 13:31:58 GMT 40.651199 -73.793121 0 43 0
2021-11-17 13:31:56 GMT 40.651211 -73.793129 0 43 0
2021-11-17 13:31:55 GMT 40.651241 -73.793098 0 43 0
2021-11-17 13:31:47 GMT 40.651272 -73.793083 0 43 0
2021-11-17 13:31:45 GMT 40.651260 -73.793083 0 43 0
2021-11-17 13:31:43 GMT 40.651272 -73.793083 0 43 0
2021-11-17 13:31:42 GMT 40.651260 -73.793083 0 43 0
2021-11-17 13:31:29 GMT 40.651272 -73.793083 0 43 0
2021-11-17 13:31:28 GMT 40.651279 -73.793068 0 43 0
2021-11-17 13:31:26 GMT 40.651279 -73.793068 0 43 0
2021-11-17 13:31:24 GMT 40.651299 -73.793053 0 43 2
2021-11-17 13:31:21 GMT 40.651291 -73.793053 0 43 2
2021-11-17 13:31:20 GMT 40.651279 -73.793053 0 43 3
2021-11-17 13:31:19 GMT 40.651279 -73.793060 0 43 3
2021-11-17 13:31:18 GMT 40.651272 -73.793060 0 43 3
2021-11-17 13:31:16 GMT 40.651218 -73.793098 0 44 3
2021-11-17 13:31:15 GMT 40.651180 -73.793129 0 43 3
2021-11-17 13:31:13 GMT 40.651058 -73.793221 0 36 3

Making use of Plane Finder data

You are free to use the raw flight data, aircraft information and images provided in this report for your own purposes provided the data is correctly attributed to Plane Finder. We ask that you please credit Plane Finder and link to planefinder.net in close proximity to the content.

Optionally one of the following logos (no smaller then 150x24px) can be used and must link to planefinder.net

Embedding the Plane Finder map

You are welcome to embed the Plane Finder playback map on your website to offer visitors a more interactive experience. We suggest using the following HTML code:

<iframe src="//planefinder.net/data/report/AA2813-N976NN-7700-squawk-2021-11-17/map" width="800" height="600" seamless="seamless"></iframe>

Where our data comes from

Plane Finder has a global network of data feeds and antenna radars that receive data broadcast directly from aircraft. The primary technologies used are ADS-B and MLAT. We also show feeds from the FAA and a FLARM glider feed.

Click here to find out more about the Plane Finder network.

How we collect our data